<?xml version="1.0" encoding="UTF-8" standalone="no" ?>
<gpx xmlns="http://www.topografix.com/GPX/1/1" xmlns:xsi="http://www.w3.org/2001/XMLSchema-instance" xsi:schemaLocation="http://www.topografix.com/GPX/1/1 http://www.topografix.com/GPX/1/1/gpx.xsd" version="1.1" creator="VisuGPX - https://www.visugpx.com">
  <metadata>
    <name>Balade nocturne tous à vélo 23 mars 2012</name>
    <desc><![CDATA[Super temps pour faire du vélo, 40 personnes se sont retrouvées à 19h
dans la bonne humeur. Nous avons parcourus des \"venelles\" méconnues dans le quartier St Martin,Lapanouse.
Nous avons ensuite emprunté quelquees réalisations récentes de la ville:
nouvelle rue Gallieni, nouvelle piste cyclable allant du cimetière des Planques jusqu\'à Weldom, passerelle cyclistes/puétons doublant le pont de Cantepau: un revêtement de \"rêve\" pour faire du vélo!!!
puis petites venelles dans le quartier du Breuil, piscine Atlantis,
puis un super final avec une côte ou chacun a pu tester sa condition,
avant de se restaurer avec pizzas et fouaces.
Tous les participants ont été enchantés par le parcours, puisse ce petit résumé donner des regrets aux autres adhérentes et les inciter à nous rejoindre lors d\'une prochaine balade découverte.]]></desc>
  </metadata>
  <trk>
    <name><![CDATA[ACTIVE LOG_3_2]]></name>
    <trkseg>
      <trkpt lat="43.92664" lon="2.14791">
        <ele>175.578</ele>
        <time>2012-03-23T18:19:58.000Z</time>
      </trkpt>
      <trkpt lat="43.92673" lon="2.14788">
        <ele>176.539</ele>
        <time>2012-03-23T18:20:18.000Z</time>
      </trkpt>
      <trkpt lat="43.92675" lon="2.14795">
        <ele>175.578</ele>
        <time>2012-03-23T18:32:23.000Z</time>
      </trkpt>
      <trkpt lat="43.92672" lon="2.14801">
        <ele>173.655</ele>
        <time>2012-03-23T18:32:44.000Z</time>
      </trkpt>
      <trkpt lat="43.92675" lon="2.14818">
        <ele>173.175</ele>
        <time>2012-03-23T18:33:12.000Z</time>
      </trkpt>
      <trkpt lat="43.92678" lon="2.1483">
        <ele>173.655</ele>
        <time>2012-03-23T18:33:17.000Z</time>
      </trkpt>
      <trkpt lat="43.92687" lon="2.14835">
        <ele>173.655</ele>
        <time>2012-03-23T18:33:46.000Z</time>
      </trkpt>
      <trkpt lat="43.9269" lon="2.14849">
        <ele>172.213</ele>
        <time>2012-03-23T18:34:15.000Z</time>
      </trkpt>
      <trkpt lat="43.92685" lon="2.14861">
        <ele>173.175</ele>
        <time>2012-03-23T18:34:23.000Z</time>
      </trkpt>
      <trkpt lat="43.92681" lon="2.14871">
        <ele>172.694</ele>
        <time>2012-03-23T18:34:28.000Z</time>
      </trkpt>
      <trkpt lat="43.92677" lon="2.14885">
        <ele>172.213</ele>
        <time>2012-03-23T18:34:32.000Z</time>
      </trkpt>
      <trkpt lat="43.92673" lon="2.14897">
        <ele>171.733</ele>
        <time>2012-03-23T18:34:35.000Z</time>
      </trkpt>
      <trkpt lat="43.92669" lon="2.1491">
        <ele>170.771</ele>
        <time>2012-03-23T18:34:38.000Z</time>
      </trkpt>
      <trkpt lat="43.92664" lon="2.14922">
        <ele>170.291</ele>
        <time>2012-03-23T18:34:41.000Z</time>
      </trkpt>
      <trkpt lat="43.92661" lon="2.14935">
        <ele>169.81</ele>
        <time>2012-03-23T18:34:44.000Z</time>
      </trkpt>
      <trkpt lat="43.92658" lon="2.14949">
        <ele>168.849</ele>
        <time>2012-03-23T18:34:47.000Z</time>
      </trkpt>
      <trkpt lat="43.92656" lon="2.14965">
        <ele>167.887</ele>
        <time>2012-03-23T18:34:50.000Z</time>
      </trkpt>
      <trkpt lat="43.92656" lon="2.14979">
        <ele>167.407</ele>
        <time>2012-03-23T18:34:53.000Z</time>
      </trkpt>
      <trkpt lat="43.92655" lon="2.14993">
        <ele>166.445</ele>
        <time>2012-03-23T18:34:57.000Z</time>
      </trkpt>
      <trkpt lat="43.92657" lon="2.1501">
        <ele>167.407</ele>
        <time>2012-03-23T18:35:03.000Z</time>
      </trkpt>
      <trkpt lat="43.92656" lon="2.15025">
        <ele>167.407</ele>
        <time>2012-03-23T18:35:06.000Z</time>
      </trkpt>
      <trkpt lat="43.92657" lon="2.15043">
        <ele>167.407</ele>
        <time>2012-03-23T18:35:09.000Z</time>
      </trkpt>
      <trkpt lat="43.92657" lon="2.15061">
        <ele>167.407</ele>
        <time>2012-03-23T18:35:12.000Z</time>
      </trkpt>
      <trkpt lat="43.92658" lon="2.15074">
        <ele>166.926</ele>
        <time>2012-03-23T18:35:14.000Z</time>
      </trkpt>
      <trkpt lat="43.9266" lon="2.15093">
        <ele>165.003</ele>
        <time>2012-03-23T18:35:17.000Z</time>
      </trkpt>
      <trkpt lat="43.92662" lon="2.1511">
        <ele>164.042</ele>
        <time>2012-03-23T18:35:20.000Z</time>
      </trkpt>
      <trkpt lat="43.92662" lon="2.15127">
        <ele>163.562</ele>
        <time>2012-03-23T18:35:23.000Z</time>
      </trkpt>
      <trkpt lat="43.92664" lon="2.15145">
        <ele>164.042</ele>
        <time>2012-03-23T18:35:26.000Z</time>
      </trkpt>
      <trkpt lat="43.92665" lon="2.15162">
        <ele>163.081</ele>
        <time>2012-03-23T18:35:29.000Z</time>
      </trkpt>
      <trkpt lat="43.92665" lon="2.15178">
        <ele>162.12</ele>
        <time>2012-03-23T18:35:32.000Z</time>
      </trkpt>
      <trkpt lat="43.92667" lon="2.15195">
        <ele>162.6</ele>
        <time>2012-03-23T18:35:35.000Z</time>
      </trkpt>
      <trkpt lat="43.92668" lon="2.15212">
        <ele>165.003</ele>
        <time>2012-03-23T18:35:38.000Z</time>
      </trkpt>
      <trkpt lat="43.92669" lon="2.15228">
        <ele>164.042</ele>
        <time>2012-03-23T18:35:41.000Z</time>
      </trkpt>
      <trkpt lat="43.92671" lon="2.15244">
        <ele>163.562</ele>
        <time>2012-03-23T18:35:44.000Z</time>
      </trkpt>
      <trkpt lat="43.92671" lon="2.15261">
        <ele>165.484</ele>
        <time>2012-03-23T18:35:47.000Z</time>
      </trkpt>
      <trkpt lat="43.92673" lon="2.15277">
        <ele>164.523</ele>
        <time>2012-03-23T18:35:50.000Z</time>
      </trkpt>
      <trkpt lat="43.92674" lon="2.15293">
        <ele>164.042</ele>
        <time>2012-03-23T18:35:53.000Z</time>
      </trkpt>
      <trkpt lat="43.92674" lon="2.15303">
        <ele>163.562</ele>
        <time>2012-03-23T18:35:55.000Z</time>
      </trkpt>
      <trkpt lat="43.92676" lon="2.15323">
        <ele>164.042</ele>
        <time>2012-03-23T18:35:59.000Z</time>
      </trkpt>
      <trkpt lat="43.92674" lon="2.15339">
        <ele>167.887</ele>
        <time>2012-03-23T18:36:03.000Z</time>
      </trkpt>
      <trkpt lat="43.92667" lon="2.1535">
        <ele>170.291</ele>
        <time>2012-03-23T18:36:07.000Z</time>
      </trkpt>
      <trkpt lat="43.92659" lon="2.15362">
        <ele>171.733</ele>
        <time>2012-03-23T18:36:11.000Z</time>
      </trkpt>
      <trkpt lat="43.92648" lon="2.15366">
        <ele>170.291</ele>
        <time>2012-03-23T18:36:15.000Z</time>
      </trkpt>
      <trkpt lat="43.92635" lon="2.15371">
        <ele>170.771</ele>
        <time>2012-03-23T18:36:19.000Z</time>
      </trkpt>
      <trkpt lat="43.92624" lon="2.15376">
        <ele>172.213</ele>
        <time>2012-03-23T18:36:23.000Z</time>
      </trkpt>
      <trkpt lat="43.92614" lon="2.15383">
        <ele>172.213</ele>
        <time>2012-03-23T18:36:27.000Z</time>
      </trkpt>
      <trkpt lat="43.92606" lon="2.15386">
        <ele>172.694</ele>
        <time>2012-03-23T18:36:30.000Z</time>
      </trkpt>
      <trkpt lat="43.92594" lon="2.15388">
        <ele>172.694</ele>
        <time>2012-03-23T18:36:34.000Z</time>
      </trkpt>
      <trkpt lat="43.92582" lon="2.15392">
        <ele>172.694</ele>
        <time>2012-03-23T18:36:38.000Z</time>
      </trkpt>
      <trkpt lat="43.92572" lon="2.15395">
        <ele>174.617</ele>
        <time>2012-03-23T18:36:42.000Z</time>
      </trkpt>
      <trkpt lat="43.92559" lon="2.15396">
        <ele>176.059</ele>
        <time>2012-03-23T18:36:47.000Z</time>
      </trkpt>
      <trkpt lat="43.92548" lon="2.15399">
        <ele>176.539</ele>
        <time>2012-03-23T18:36:53.000Z</time>
      </trkpt>
      <trkpt lat="43.92542" lon="2.15405">
        <ele>182.307</ele>
        <time>2012-03-23T18:37:02.000Z</time>
      </trkpt>
      <trkpt lat="43.92538" lon="2.15418">
        <ele>183.749</ele>
        <time>2012-03-23T18:37:16.000Z</time>
      </trkpt>
      <trkpt lat="43.92536" lon="2.15429">
        <ele>182.788</ele>
        <time>2012-03-23T18:37:20.000Z</time>
      </trkpt>
      <trkpt lat="43.92532" lon="2.15441">
        <ele>182.788</ele>
        <time>2012-03-23T18:37:25.000Z</time>
      </trkpt>
      <trkpt lat="43.92526" lon="2.15451">
        <ele>181.346</ele>
        <time>2012-03-23T18:37:30.000Z</time>
      </trkpt>
      <trkpt lat="43.92523" lon="2.15467">
        <ele>181.826</ele>
        <time>2012-03-23T18:37:35.000Z</time>
      </trkpt>
      <trkpt lat="43.92524" lon="2.15482">
        <ele>180.865</ele>
        <time>2012-03-23T18:37:40.000Z</time>
      </trkpt>
      <trkpt lat="43.92521" lon="2.15494">
        <ele>180.385</ele>
        <time>2012-03-23T18:37:44.000Z</time>
      </trkpt>
      <trkpt lat="43.92521" lon="2.15506">
        <ele>176.059</ele>
        <time>2012-03-23T18:37:49.000Z</time>
      </trkpt>
      <trkpt lat="43.92521" lon="2.15519">
        <ele>175.097</ele>
        <time>2012-03-23T18:37:55.000Z</time>
      </trkpt>
      <trkpt lat="43.92519" lon="2.15535">
        <ele>175.097</ele>
        <time>2012-03-23T18:38:00.000Z</time>
      </trkpt>
      <trkpt lat="43.92516" lon="2.1555">
        <ele>177.02</ele>
        <time>2012-03-23T18:38:05.000Z</time>
      </trkpt>
      <trkpt lat="43.92515" lon="2.15563">
        <ele>177.02</ele>
        <time>2012-03-23T18:38:10.000Z</time>
      </trkpt>
      <trkpt lat="43.92512" lon="2.15576">
        <ele>176.539</ele>
        <time>2012-03-23T18:38:14.000Z</time>
      </trkpt>
      <trkpt lat="43.92509" lon="2.15589">
        <ele>177.02</ele>
        <time>2012-03-23T18:38:18.000Z</time>
      </trkpt>
      <trkpt lat="43.92504" lon="2.15604">
        <ele>177.981</ele>
        <time>2012-03-23T18:38:24.000Z</time>
      </trkpt>
      <trkpt lat="43.92498" lon="2.15622">
        <ele>175.578</ele>
        <time>2012-03-23T18:38:29.000Z</time>
      </trkpt>
      <trkpt lat="43.92495" lon="2.15637">
        <ele>176.059</ele>
        <time>2012-03-23T18:38:33.000Z</time>
      </trkpt>
      <trkpt lat="43.92493" lon="2.15648">
        <ele>176.539</ele>
        <time>2012-03-23T18:38:36.000Z</time>
      </trkpt>
      <trkpt lat="43.9249" lon="2.15662">
        <ele>176.059</ele>
        <time>2012-03-23T18:38:40.000Z</time>
      </trkpt>
      <trkpt lat="43.92488" lon="2.15676">
        <ele>174.617</ele>
        <time>2012-03-23T18:38:44.000Z</time>
      </trkpt>
      <trkpt lat="43.92486" lon="2.15691">
        <ele>173.655</ele>
        <time>2012-03-23T18:38:48.000Z</time>
      </trkpt>
      <trkpt lat="43.92484" lon="2.15705">
        <ele>172.694</ele>
        <time>2012-03-23T18:38:52.000Z</time>
      </trkpt>
      <trkpt lat="43.92487" lon="2.15717">
        <ele>173.655</ele>
        <time>2012-03-23T18:38:57.000Z</time>
      </trkpt>
      <trkpt lat="43.92493" lon="2.15729">
        <ele>173.175</ele>
        <time>2012-03-23T18:39:01.000Z</time>
      </trkpt>
      <trkpt lat="43.92498" lon="2.15739">
        <ele>174.617</ele>
        <time>2012-03-23T18:39:05.000Z</time>
      </trkpt>
      <trkpt lat="43.92511" lon="2.15748">
        <ele>175.097</ele>
        <time>2012-03-23T18:39:10.000Z</time>
      </trkpt>
      <trkpt lat="43.92521" lon="2.1575">
        <ele>176.059</ele>
        <time>2012-03-23T18:39:14.000Z</time>
      </trkpt>
      <trkpt lat="43.9253" lon="2.15756">
        <ele>176.539</ele>
        <time>2012-03-23T18:39:18.000Z</time>
      </trkpt>
      <trkpt lat="43.92538" lon="2.15765">
        <ele>176.059</ele>
        <time>2012-03-23T18:39:22.000Z</time>
      </trkpt>
      <trkpt lat="43.92545" lon="2.15776">
        <ele>176.059</ele>
        <time>2012-03-23T18:39:26.000Z</time>
      </trkpt>
      <trkpt lat="43.92551" lon="2.15785">
        <ele>176.059</ele>
        <time>2012-03-23T18:39:30.000Z</time>
      </trkpt>
      <trkpt lat="43.92554" lon="2.15797">
        <ele>175.578</ele>
        <time>2012-03-23T18:39:37.000Z</time>
      </trkpt>
      <trkpt lat="43.92546" lon="2.15807">
        <ele>175.578</ele>
        <time>2012-03-23T18:39:42.000Z</time>
      </trkpt>
      <trkpt lat="43.9254" lon="2.15817">
        <ele>176.539</ele>
        <time>2012-03-23T18:39:46.000Z</time>
      </trkpt>
      <trkpt lat="43.92532" lon="2.15826">
        <ele>176.539</ele>
        <time>2012-03-23T18:39:50.000Z</time>
      </trkpt>
      <trkpt lat="43.92524" lon="2.15837">
        <ele>176.539</ele>
        <time>2012-03-23T18:39:55.000Z</time>
      </trkpt>
      <trkpt lat="43.92517" lon="2.15847">
        <ele>177.02</ele>
        <time>2012-03-23T18:39:59.000Z</time>
      </trkpt>
      <trkpt lat="43.92509" lon="2.15857">
        <ele>177.02</ele>
        <time>2012-03-23T18:40:03.000Z</time>
      </trkpt>
      <trkpt lat="43.92502" lon="2.15869">
        <ele>175.097</ele>
        <time>2012-03-23T18:40:08.000Z</time>
      </trkpt>
      <trkpt lat="43.92496" lon="2.15879">
        <ele>175.097</ele>
        <time>2012-03-23T18:40:12.000Z</time>
      </trkpt>
      <trkpt lat="43.92488" lon="2.15885">
        <ele>176.539</ele>
        <time>2012-03-23T18:40:16.000Z</time>
      </trkpt>
      <trkpt lat="43.92479" lon="2.15892">
        <ele>177.02</ele>
        <time>2012-03-23T18:40:20.000Z</time>
      </trkpt>
      <trkpt lat="43.92475" lon="2.15904">
        <ele>177.02</ele>
        <time>2012-03-23T18:40:24.000Z</time>
      </trkpt>
      <trkpt lat="43.92471" lon="2.15918">
        <ele>177.501</ele>
        <time>2012-03-23T18:40:28.000Z</time>
      </trkpt>
      <trkpt lat="43.92464" lon="2.15929">
        <ele>177.501</ele>
        <time>2012-03-23T18:40:31.000Z</time>
      </trkpt>
      <trkpt lat="43.92458" lon="2.15939">
        <ele>178.462</ele>
        <time>2012-03-23T18:40:34.000Z</time>
      </trkpt>
      <trkpt lat="43.92453" lon="2.15949">
        <ele>177.981</ele>
        <time>2012-03-23T18:40:37.000Z</time>
      </trkpt>
      <trkpt lat="43.92446" lon="2.15959">
        <ele>177.501</ele>
        <time>2012-03-23T18:40:40.000Z</time>
      </trkpt>
      <trkpt lat="43.9244" lon="2.1597">
        <ele>178.462</ele>
        <time>2012-03-23T18:40:43.000Z</time>
      </trkpt>
      <trkpt lat="43.92435" lon="2.15981">
        <ele>179.423</ele>
        <time>2012-03-23T18:40:46.000Z</time>
      </trkpt>
      <trkpt lat="43.92429" lon="2.15992">
        <ele>179.904</ele>
        <time>2012-03-23T18:40:49.000Z</time>
      </trkpt>
      <trkpt lat="43.92423" lon="2.16004">
        <ele>179.423</ele>
        <time>2012-03-23T18:40:52.000Z</time>
      </trkpt>
      <trkpt lat="43.92418" lon="2.16015">
        <ele>178.943</ele>
        <time>2012-03-23T18:40:55.000Z</time>
      </trkpt>
      <trkpt lat="43.92412" lon="2.16029">
        <ele>179.423</ele>
        <time>2012-03-23T18:40:59.000Z</time>
      </trkpt>
      <trkpt lat="43.92405" lon="2.16044">
        <ele>179.423</ele>
        <time>2012-03-23T18:41:03.000Z</time>
      </trkpt>
      <trkpt lat="43.92401" lon="2.16056">
        <ele>178.943</ele>
        <time>2012-03-23T18:41:07.000Z</time>
      </trkpt>
      <trkpt lat="43.92396" lon="2.16073">
        <ele>178.462</ele>
        <time>2012-03-23T18:41:12.000Z</time>
      </trkpt>
      <trkpt lat="43.92403" lon="2.16078">
        <ele>178.462</ele>
        <time>2012-03-23T18:41:25.000Z</time>
      </trkpt>
      <trkpt lat="43.92413" lon="2.1608">
        <ele>178.462</ele>
        <time>2012-03-23T18:41:32.000Z</time>
      </trkpt>
      <trkpt lat="43.92425" lon="2.1608">
        <ele>178.943</ele>
        <time>2012-03-23T18:41:38.000Z</time>
      </trkpt>
      <trkpt lat="43.92435" lon="2.16084">
        <ele>179.423</ele>
        <time>2012-03-23T18:41:43.000Z</time>
      </trkpt>
      <trkpt lat="43.92445" lon="2.16085">
        <ele>179.423</ele>
        <time>2012-03-23T18:41:48.000Z</time>
      </trkpt>
      <trkpt lat="43.92453" lon="2.16087">
        <ele>178.943</ele>
        <time>2012-03-23T18:41:52.000Z</time>
      </trkpt>
      <trkpt lat="43.92465" lon="2.1609">
        <ele>179.423</ele>
        <time>2012-03-23T18:41:58.000Z</time>
      </trkpt>
      <trkpt lat="43.92476" lon="2.16093">
        <ele>178.943</ele>
        <time>2012-03-23T18:42:03.000Z</time>
      </trkpt>
      <trkpt lat="43.92484" lon="2.16088">
        <ele>178.943</ele>
        <time>2012-03-23T18:42:09.000Z</time>
      </trkpt>
      <trkpt lat="43.92488" lon="2.16075">
        <ele>178.943</ele>
        <time>2012-03-23T18:42:14.000Z</time>
      </trkpt>
      <trkpt lat="43.92493" lon="2.16063">
        <ele>177.981</ele>
        <time>2012-03-23T18:42:19.000Z</time>
      </trkpt>
      <trkpt lat="43.92501" lon="2.16056">
        <ele>177.981</ele>
        <time>2012-03-23T18:42:25.000Z</time>
      </trkpt>
      <trkpt lat="43.92509" lon="2.16063">
        <ele>177.981</ele>
        <time>2012-03-23T18:42:32.000Z</time>
      </trkpt>
      <trkpt lat="43.92517" lon="2.16068">
        <ele>177.501</ele>
        <time>2012-03-23T18:42:37.000Z</time>
      </trkpt>
      <trkpt lat="43.92521" lon="2.16079">
        <ele>178.462</ele>
        <time>2012-03-23T18:42:44.000Z</time>
      </trkpt>
      <trkpt lat="43.92517" lon="2.16093">
        <ele>177.981</ele>
        <time>2012-03-23T18:42:50.000Z</time>
      </trkpt>
      <trkpt lat="43.92514" lon="2.16106">
        <ele>178.462</ele>
        <time>2012-03-23T18:42:55.000Z</time>
      </trkpt>
      <trkpt lat="43.9251" lon="2.16123">
        <ele>179.423</ele>
        <time>2012-03-23T18:43:00.000Z</time>
      </trkpt>
      <trkpt lat="43.92511" lon="2.16135">
        <ele>178.462</ele>
        <time>2012-03-23T18:43:04.000Z</time>
      </trkpt>
      <trkpt lat="43.9252" lon="2.16139">
        <ele>178.462</ele>
        <time>2012-03-23T18:43:09.000Z</time>
      </trkpt>
      <trkpt lat="43.9253" lon="2.16141">
        <ele>178.462</ele>
        <time>2012-03-23T18:46:11.000Z</time>
      </trkpt>
      <trkpt lat="43.9254" lon="2.16148">
        <ele>178.462</ele>
        <time>2012-03-23T18:46:19.000Z</time>
      </trkpt>
      <trkpt lat="43.92548" lon="2.16148">
        <ele>177.981</ele>
        <time>2012-03-23T18:46:26.000Z</time>
      </trkpt>
      <trkpt lat="43.92554" lon="2.16138">
        <ele>179.904</ele>
        <time>2012-03-23T18:46:56.000Z</time>
      </trkpt>
      <trkpt lat="43.92564" lon="2.16139">
        <ele>182.788</ele>
        <time>2012-03-23T18:47:05.000Z</time>
      </trkpt>
      <trkpt lat="43.92574" lon="2.16134">
        <ele>182.307</ele>
        <time>2012-03-23T18:47:11.000Z</time>
      </trkpt>
      <trkpt lat="43.92579" lon="2.16121">
        <ele>182.307</ele>
        <time>2012-03-23T18:47:15.000Z</time>
      </trkpt>
      <trkpt lat="43.92582" lon="2.16109">
        <ele>182.788</ele>
        <time>2012-03-23T18:47:19.000Z</time>
      </trkpt>
      <trkpt lat="43.92586" lon="2.16095">
        <ele>182.307</ele>
        <time>2012-03-23T18:47:24.000Z</time>
      </trkpt>
      <trkpt lat="43.92589" lon="2.16081">
        <ele>181.826</ele>
        <time>2012-03-23T18:47:29.000Z</time>
      </trkpt>
      <trkpt lat="43.92592" lon="2.16068">
        <ele>181.826</ele>
        <time>2012-03-23T18:47:34.000Z</time>
      </trkpt>
      <trkpt lat="43.92595" lon="2.16054">
        <ele>181.346</ele>
        <time>2012-03-23T18:47:39.000Z</time>
      </trkpt>
      <trkpt lat="43.92599" lon="2.16043">
        <ele>180.385</ele>
        <time>2012-03-23T18:47:44.000Z</time>
      </trkpt>
      <trkpt lat="43.92609" lon="2.16045">
        <ele>180.385</ele>
        <time>2012-03-23T18:47:49.000Z</time>
      </trkpt>
      <trkpt lat="43.92618" lon="2.1605">
        <ele>182.788</ele>
        <time>2012-03-23T18:47:55.000Z</time>
      </trkpt>
      <trkpt lat="43.92627" lon="2.16055">
        <ele>184.711</ele>
        <time>2012-03-23T18:48:01.000Z</time>
      </trkpt>
      <trkpt lat="43.92641" lon="2.16057">
        <ele>184.711</ele>
        <time>2012-03-23T18:48:07.000Z</time>
      </trkpt>
      <trkpt lat="43.92649" lon="2.16061">
        <ele>183.749</ele>
        <time>2012-03-23T18:48:16.000Z</time>
      </trkpt>
      <trkpt lat="43.92649" lon="2.16073">
        <ele>184.23</ele>
        <time>2012-03-23T18:48:35.000Z</time>
      </trkpt>
      <trkpt lat="43.92648" lon="2.16087">
        <ele>184.23</ele>
        <time>2012-03-23T18:48:41.000Z</time>
      </trkpt>
      <trkpt lat="43.92646" lon="2.161">
        <ele>182.788</ele>
        <time>2012-03-23T18:48:46.000Z</time>
      </trkpt>
      <trkpt lat="43.92644" lon="2.16115">
        <ele>181.346</ele>
        <time>2012-03-23T18:48:51.000Z</time>
      </trkpt>
      <trkpt lat="43.92641" lon="2.16127">
        <ele>180.865</ele>
        <time>2012-03-23T18:48:55.000Z</time>
      </trkpt>
      <trkpt lat="43.9264" lon="2.16142">
        <ele>180.865</ele>
        <time>2012-03-23T18:49:00.000Z</time>
      </trkpt>
      <trkpt lat="43.92638" lon="2.16157">
        <ele>180.385</ele>
        <time>2012-03-23T18:49:04.000Z</time>
      </trkpt>
      <trkpt lat="43.92637" lon="2.16171">
        <ele>180.385</ele>
        <time>2012-03-23T18:49:08.000Z</time>
      </trkpt>
      <trkpt lat="43.92635" lon="2.16184">
        <ele>180.385</ele>
        <time>2012-03-23T18:49:12.000Z</time>
      </trkpt>
      <trkpt lat="43.92633" lon="2.16197">
        <ele>179.904</ele>
        <time>2012-03-23T18:49:16.000Z</time>
      </trkpt>
      <trkpt lat="43.92631" lon="2.16211">
        <ele>179.904</ele>
        <time>2012-03-23T18:49:20.000Z</time>
      </trkpt>
      <trkpt lat="43.9263" lon="2.16225">
        <ele>179.423</ele>
        <time>2012-03-23T18:49:24.000Z</time>
      </trkpt>
      <trkpt lat="43.92628" lon="2.16244">
        <ele>179.423</ele>
        <time>2012-03-23T18:49:29.000Z</time>
      </trkpt>
      <trkpt lat="43.92627" lon="2.16259">
        <ele>179.423</ele>
        <time>2012-03-23T18:49:33.000Z</time>
      </trkpt>
      <trkpt lat="43.92624" lon="2.16273">
        <ele>178.943</ele>
        <time>2012-03-23T18:49:37.000Z</time>
      </trkpt>
      <trkpt lat="43.92622" lon="2.16288">
        <ele>178.943</ele>
        <time>2012-03-23T18:49:41.000Z</time>
      </trkpt>
      <trkpt lat="43.92621" lon="2.16302">
        <ele>178.943</ele>
        <time>2012-03-23T18:49:45.000Z</time>
      </trkpt>
      <trkpt lat="43.92619" lon="2.16316">
        <ele>178.943</ele>
        <time>2012-03-23T18:49:49.000Z</time>
      </trkpt>
      <trkpt lat="43.92619" lon="2.1633">
        <ele>179.423</ele>
        <time>2012-03-23T18:49:53.000Z</time>
      </trkpt>
      <trkpt lat="43.92618" lon="2.16347">
        <ele>178.943</ele>
        <time>2012-03-23T18:49:58.000Z</time>
      </trkpt>
      <trkpt lat="43.92618" lon="2.16363">
        <ele>179.423</ele>
        <time>2012-03-23T18:50:02.000Z</time>
      </trkpt>
      <trkpt lat="43.92617" lon="2.16374">
        <ele>178.943</ele>
        <time>2012-03-23T18:50:05.000Z</time>
      </trkpt>
      <trkpt lat="43.92617" lon="2.1639">
        <ele>179.423</ele>
        <time>2012-03-23T18:50:09.000Z</time>
      </trkpt>
      <trkpt lat="43.92617" lon="2.16405">
        <ele>179.423</ele>
        <time>2012-03-23T18:50:13.000Z</time>
      </trkpt>
      <trkpt lat="43.92617" lon="2.16422">
        <ele>179.423</ele>
        <time>2012-03-23T18:50:17.000Z</time>
      </trkpt>
      <trkpt lat="43.92617" lon="2.16439">
        <ele>178.943</ele>
        <time>2012-03-23T18:50:21.000Z</time>
      </trkpt>
      <trkpt lat="43.92617" lon="2.16452">
        <ele>179.423</ele>
        <time>2012-03-23T18:50:24.000Z</time>
      </trkpt>
      <trkpt lat="43.92619" lon="2.16465">
        <ele>179.423</ele>
        <time>2012-03-23T18:50:27.000Z</time>
      </trkpt>
      <trkpt lat="43.92621" lon="2.16479">
        <ele>178.943</ele>
        <time>2012-03-23T18:50:31.000Z</time>
      </trkpt>
      <trkpt lat="43.92629" lon="2.16489">
        <ele>178.462</ele>
        <time>2012-03-23T18:50:38.000Z</time>
      </trkpt>
      <trkpt lat="43.9264" lon="2.16489">
        <ele>178.943</ele>
        <time>2012-03-23T18:51:24.000Z</time>
      </trkpt>
      <trkpt lat="43.92649" lon="2.16492">
        <ele>179.423</ele>
        <time>2012-03-23T18:51:29.000Z</time>
      </trkpt>
      <trkpt lat="43.92661" lon="2.16493">
        <ele>179.904</ele>
        <time>2012-03-23T18:51:34.000Z</time>
      </trkpt>
      <trkpt lat="43.92671" lon="2.16495">
        <ele>180.385</ele>
        <time>2012-03-23T18:51:39.000Z</time>
      </trkpt>
      <trkpt lat="43.92681" lon="2.16497">
        <ele>179.904</ele>
        <time>2012-03-23T18:51:43.000Z</time>
      </trkpt>
      <trkpt lat="43.92693" lon="2.165">
        <ele>180.385</ele>
        <time>2012-03-23T18:51:48.000Z</time>
      </trkpt>
      <trkpt lat="43.92703" lon="2.16503">
        <ele>181.346</ele>
        <time>2012-03-23T18:51:52.000Z</time>
      </trkpt>
      <trkpt lat="43.92712" lon="2.16504">
        <ele>181.826</ele>
        <time>2012-03-23T18:51:55.000Z</time>
      </trkpt>
      <trkpt lat="43.92724" lon="2.16505">
        <ele>180.865</ele>
        <time>2012-03-23T18:51:59.000Z</time>
      </trkpt>
      <trkpt lat="43.92735" lon="2.16508">
        <ele>180.385</ele>
        <time>2012-03-23T18:52:03.000Z</time>
      </trkpt>
      <trkpt lat="43.92744" lon="2.16509">
        <ele>180.385</ele>
        <time>2012-03-23T18:52:07.000Z</time>
      </trkpt>
      <trkpt lat="43.92747" lon="2.16498">
        <ele>180.385</ele>
        <time>2012-03-23T18:52:12.000Z</time>
      </trkpt>
      <trkpt lat="43.92752" lon="2.16484">
        <ele>178.943</ele>
        <time>2012-03-23T18:52:19.000Z</time>
      </trkpt>
      <trkpt lat="43.92762" lon="2.16483">
        <ele>178.462</ele>
        <time>2012-03-23T18:52:27.000Z</time>
      </trkpt>
      <trkpt lat="43.92771" lon="2.16486">
        <ele>177.981</ele>
        <time>2012-03-23T18:52:32.000Z</time>
      </trkpt>
      <trkpt lat="43.92781" lon="2.16487">
        <ele>177.981</ele>
        <time>2012-03-23T18:52:37.000Z</time>
      </trkpt>
      <trkpt lat="43.92792" lon="2.16487">
        <ele>177.501</ele>
        <time>2012-03-23T18:52:42.000Z</time>
      </trkpt>
      <trkpt lat="43.92796" lon="2.16474">
        <ele>177.981</ele>
        <time>2012-03-23T18:52:47.000Z</time>
      </trkpt>
      <trkpt lat="43.92797" lon="2.16456">
        <ele>179.423</ele>
        <time>2012-03-23T18:52:52.000Z</time>
      </trkpt>
      <trkpt lat="43.92799" lon="2.16442">
        <ele>179.423</ele>
        <time>2012-03-23T18:52:56.000Z</time>
      </trkpt>
      <trkpt lat="43.92801" lon="2.16428">
        <ele>179.423</ele>
        <time>2012-03-23T18:53:02.000Z</time>
      </trkpt>
      <trkpt lat="43.92806" lon="2.16417">
        <ele>179.423</ele>
        <time>2012-03-23T18:53:09.000Z</time>
      </trkpt>
      <trkpt lat="43.92812" lon="2.16421">
        <ele>180.385</ele>
        <time>2012-03-23T18:53:33.000Z</time>
      </trkpt>
      <trkpt lat="43.92821" lon="2.16426">
        <ele>179.423</ele>
        <time>2012-03-23T18:53:39.000Z</time>
      </trkpt>
      <trkpt lat="43.9283" lon="2.16431">
        <ele>179.423</ele>
        <time>2012-03-23T18:53:45.000Z</time>
      </trkpt>
      <trkpt lat="43.9284" lon="2.16438">
        <ele>180.865</ele>
        <time>2012-03-23T18:53:52.000Z</time>
      </trkpt>
      <trkpt lat="43.92851" lon="2.16441">
        <ele>179.423</ele>
        <time>2012-03-23T18:53:57.000Z</time>
      </trkpt>
      <trkpt lat="43.92862" lon="2.16443">
        <ele>179.423</ele>
        <time>2012-03-23T18:54:02.000Z</time>
      </trkpt>
      <trkpt lat="43.92872" lon="2.16442">
        <ele>178.462</ele>
        <time>2012-03-23T18:54:07.000Z</time>
      </trkpt>
      <trkpt lat="43.92881" lon="2.16446">
        <ele>178.462</ele>
        <time>2012-03-23T18:54:12.000Z</time>
      </trkpt>
      <trkpt lat="43.92891" lon="2.16447">
        <ele>177.981</ele>
        <time>2012-03-23T18:54:17.000Z</time>
      </trkpt>
      <trkpt lat="43.929" lon="2.16443">
        <ele>176.539</ele>
        <time>2012-03-23T18:54:22.000Z</time>
      </trkpt>
      <trkpt lat="43.92912" lon="2.16441">
        <ele>176.539</ele>
        <time>2012-03-23T18:54:27.000Z</time>
      </trkpt>
      <trkpt lat="43.9292" lon="2.16433">
        <ele>176.059</ele>
        <time>2012-03-23T18:54:32.000Z</time>
      </trkpt>
      <trkpt lat="43.92919" lon="2.16421">
        <ele>175.578</ele>
        <time>2012-03-23T18:54:38.000Z</time>
      </trkpt>
      <trkpt lat="43.92927" lon="2.16413">
        <ele>176.059</ele>
        <time>2012-03-23T18:54:45.000Z</time>
      </trkpt>
      <trkpt lat="43.92935" lon="2.16404">
        <ele>176.059</ele>
        <time>2012-03-23T18:54:51.000Z</time>
      </trkpt>
      <trkpt lat="43.92942" lon="2.16397">
        <ele>175.578</ele>
        <time>2012-03-23T18:54:56.000Z</time>
      </trkpt>
      <trkpt lat="43.92949" lon="2.16394">
        <ele>175.578</ele>
        <time>2012-03-23T18:55:03.000Z</time>
      </trkpt>
      <trkpt lat="43.92945" lon="2.16401">
        <ele>176.059</ele>
        <time>2012-03-23T18:55:08.000Z</time>
      </trkpt>
      <trkpt lat="43.92944" lon="2.1639">
        <ele>176.059</ele>
        <time>2012-03-23T18:55:12.000Z</time>
      </trkpt>
      <trkpt lat="43.92948" lon="2.16376">
        <ele>176.059</ele>
        <time>2012-03-23T18:55:17.000Z</time>
      </trkpt>
      <trkpt lat="43.9295" lon="2.16364">
        <ele>175.578</ele>
        <time>2012-03-23T18:55:21.000Z</time>
      </trkpt>
      <trkpt lat="43.9295" lon="2.1635">
        <ele>176.059</ele>
        <time>2012-03-23T18:55:26.000Z</time>
      </trkpt>
      <trkpt lat="43.92945" lon="2.16338">
        <ele>176.059</ele>
        <time>2012-03-23T18:55:32.000Z</time>
      </trkpt>
      <trkpt lat="43.92945" lon="2.16326">
        <ele>176.059</ele>
        <time>2012-03-23T18:55:39.000Z</time>
      </trkpt>
      <trkpt lat="43.9295" lon="2.16316">
        <ele>176.059</ele>
        <time>2012-03-23T18:55:45.000Z</time>
      </trkpt>
      <trkpt lat="43.92954" lon="2.16304">
        <ele>177.02</ele>
        <time>2012-03-23T18:55:51.000Z</time>
      </trkpt>
      <trkpt lat="43.92961" lon="2.16296">
        <ele>177.02</ele>
        <time>2012-03-23T18:55:56.000Z</time>
      </trkpt>
      <trkpt lat="43.9297" lon="2.16289">
        <ele>176.539</ele>
        <time>2012-03-23T18:56:02.000Z</time>
      </trkpt>
      <trkpt lat="43.92979" lon="2.16283">
        <ele>177.02</ele>
        <time>2012-03-23T18:56:07.000Z</time>
      </trkpt>
      <trkpt lat="43.92989" lon="2.16277">
        <ele>176.539</ele>
        <time>2012-03-23T18:56:12.000Z</time>
      </trkpt>
      <trkpt lat="43.92999" lon="2.16271">
        <ele>176.059</ele>
        <time>2012-03-23T18:56:16.000Z</time>
      </trkpt>
      <trkpt lat="43.93007" lon="2.16265">
        <ele>176.059</ele>
        <time>2012-03-23T18:56:20.000Z</time>
      </trkpt>
      <trkpt lat="43.93016" lon="2.1626">
        <ele>176.059</ele>
        <time>2012-03-23T18:56:24.000Z</time>
      </trkpt>
      <trkpt lat="43.93028" lon="2.16253">
        <ele>175.578</ele>
        <time>2012-03-23T18:56:29.000Z</time>
      </trkpt>
      <trkpt lat="43.93036" lon="2.16247">
        <ele>175.097</ele>
        <time>2012-03-23T18:56:33.000Z</time>
      </trkpt>
      <trkpt lat="43.93045" lon="2.16242">
        <ele>175.097</ele>
        <time>2012-03-23T18:56:40.000Z</time>
      </trkpt>
      <trkpt lat="43.93052" lon="2.16245">
        <ele>175.097</ele>
        <time>2012-03-23T18:57:59.000Z</time>
      </trkpt>
      <trkpt lat="43.93063" lon="2.16251">
        <ele>175.578</ele>
        <time>2012-03-23T18:58:03.000Z</time>
      </trkpt>
      <trkpt lat="43.93071" lon="2.16259">
        <ele>175.578</ele>
        <time>2012-03-23T18:58:06.000Z</time>
      </trkpt>
      <trkpt lat="43.93076" lon="2.16271">
        <ele>176.059</ele>
        <time>2012-03-23T18:58:09.000Z</time>
      </trkpt>
      <trkpt lat="43.93081" lon="2.16282">
        <ele>175.578</ele>
        <time>2012-03-23T18:58:12.000Z</time>
      </trkpt>
      <trkpt lat="43.93084" lon="2.1629">
        <ele>175.578</ele>
        <time>2012-03-23T18:58:14.000Z</time>
      </trkpt>
      <trkpt lat="43.93089" lon="2.16307">
        <ele>175.097</ele>
        <time>2012-03-23T18:58:18.000Z</time>
      </trkpt>
      <trkpt lat="43.93093" lon="2.16318">
        <ele>174.617</ele>
        <time>2012-03-23T18:58:21.000Z</time>
      </trkpt>
      <trkpt lat="43.93096" lon="2.16331">
        <ele>174.617</ele>
        <time>2012-03-23T18:58:25.000Z</time>
      </trkpt>
      <trkpt lat="43.931" lon="2.16345">
        <ele>174.136</ele>
        <time>2012-03-23T18:58:30.000Z</time>
      </trkpt>
      <trkpt lat="43.9311" lon="2.16347">
        <ele>173.655</ele>
        <time>2012-03-23T18:58:35.000Z</time>
      </trkpt>
      <trkpt lat="43.93113" lon="2.16354">
        <ele>172.694</ele>
        <time>2012-03-23T19:00:00.000Z</time>
      </trkpt>
      <trkpt lat="43.93118" lon="2.16365">
        <ele>172.213</ele>
        <time>2012-03-23T19:00:40.000Z</time>
      </trkpt>
      <trkpt lat="43.93122" lon="2.16378">
        <ele>172.213</ele>
        <time>2012-03-23T19:00:44.000Z</time>
      </trkpt>
      <trkpt lat="43.93127" lon="2.16394">
        <ele>171.252</ele>
        <time>2012-03-23T19:00:48.000Z</time>
      </trkpt>
      <trkpt lat="43.93132" lon="2.16406">
        <ele>170.291</ele>
        <time>2012-03-23T19:00:51.000Z</time>
      </trkpt>
      <trkpt lat="43.93135" lon="2.16418">
        <ele>169.81</ele>
        <time>2012-03-23T19:00:54.000Z</time>
      </trkpt>
      <trkpt lat="43.93139" lon="2.16432">
        <ele>170.291</ele>
        <time>2012-03-23T19:00:57.000Z</time>
      </trkpt>
      <trkpt lat="43.93143" lon="2.16444">
        <ele>169.329</ele>
        <time>2012-03-23T19:01:00.000Z</time>
      </trkpt>
      <trkpt lat="43.93147" lon="2.16457">
        <ele>169.329</ele>
        <time>2012-03-23T19:01:03.000Z</time>
      </trkpt>
      <trkpt lat="43.93152" lon="2.1647">
        <ele>169.81</ele>
        <time>2012-03-23T19:01:07.000Z</time>
      </trkpt>
      <trkpt lat="43.93156" lon="2.16484">
        <ele>169.329</ele>
        <time>2012-03-23T19:01:12.000Z</time>
      </trkpt>
      <trkpt lat="43.93164" lon="2.16493">
        <ele>169.329</ele>
        <time>2012-03-23T19:01:16.000Z</time>
      </trkpt>
      <trkpt lat="43.93169" lon="2.165">
        <ele>169.329</ele>
        <time>2012-03-23T19:01:19.000Z</time>
      </trkpt>
      <trkpt lat="43.93173" lon="2.16515">
        <ele>169.329</ele>
        <time>2012-03-23T19:01:23.000Z</time>
      </trkpt>
      <trkpt lat="43.93174" lon="2.16528">
        <ele>168.368</ele>
        <time>2012-03-23T19:01:26.000Z</time>
      </trkpt>
      <trkpt lat="43.9317" lon="2.16541">
        <ele>167.887</ele>
        <time>2012-03-23T19:01:30.000Z</time>
      </trkpt>
      <trkpt lat="43.93172" lon="2.16553">
        <ele>167.407</ele>
        <time>2012-03-23T19:01:35.000Z</time>
      </trkpt>
      <trkpt lat="43.93177" lon="2.16566">
        <ele>166.926</ele>
        <time>2012-03-23T19:01:39.000Z</time>
      </trkpt>
      <trkpt lat="43.93181" lon="2.16578">
        <ele>166.445</ele>
        <time>2012-03-23T19:01:43.000Z</time>
      </trkpt>
      <trkpt lat="43.93187" lon="2.16585">
        <ele>166.445</ele>
        <time>2012-03-23T19:01:48.000Z</time>
      </trkpt>
      <trkpt lat="43.93191" lon="2.166">
        <ele>167.407</ele>
        <time>2012-03-23T19:01:54.000Z</time>
      </trkpt>
      <trkpt lat="43.93198" lon="2.1661">
        <ele>167.887</ele>
        <time>2012-03-23T19:01:59.000Z</time>
      </trkpt>
      <trkpt lat="43.93206" lon="2.16619">
        <ele>166.445</ele>
        <time>2012-03-23T19:02:04.000Z</time>
      </trkpt>
      <trkpt lat="43.93213" lon="2.16627">
        <ele>167.887</ele>
        <time>2012-03-23T19:02:09.000Z</time>
      </trkpt>
      <trkpt lat="43.93221" lon="2.16637">
        <ele>169.329</ele>
        <time>2012-03-23T19:02:15.000Z</time>
      </trkpt>
      <trkpt lat="43.9323" lon="2.16645">
        <ele>170.291</ele>
        <time>2012-03-23T19:02:20.000Z</time>
      </trkpt>
      <trkpt lat="43.93239" lon="2.16653">
        <ele>170.771</ele>
        <time>2012-03-23T19:02:23.000Z</time>
      </trkpt>
      <trkpt lat="43.93249" lon="2.16663">
        <ele>173.175</ele>
        <time>2012-03-23T19:03:49.000Z</time>
      </trkpt>
      <trkpt lat="43.93253" lon="2.16678">
        <ele>173.655</ele>
        <time>2012-03-23T19:03:52.000Z</time>
      </trkpt>
      <trkpt lat="43.93259" lon="2.16693">
        <ele>174.617</ele>
        <time>2012-03-23T19:03:55.000Z</time>
      </trkpt>
      <trkpt lat="43.93266" lon="2.167">
        <ele>175.097</ele>
        <time>2012-03-23T19:03:58.000Z</time>
      </trkpt>
      <trkpt lat="43.93272" lon="2.16716">
        <ele>174.617</ele>
        <time>2012-03-23T19:04:01.000Z</time>
      </trkpt>
      <trkpt lat="43.93274" lon="2.16734">
        <ele>175.097</ele>
        <time>2012-03-23T19:04:04.000Z</time>
      </trkpt>
      <trkpt lat="43.9328" lon="2.16752">
        <ele>175.097</ele>
        <time>2012-03-23T19:04:08.000Z</time>
      </trkpt>
      <trkpt lat="43.93293" lon="2.16749">
        <ele>174.617</ele>
        <time>2012-03-23T19:04:12.000Z</time>
      </trkpt>
      <trkpt lat="43.93304" lon="2.16745">
        <ele>175.578</ele>
        <time>2012-03-23T19:04:15.000Z</time>
      </trkpt>
      <trkpt lat="43.93314" lon="2.16743">
        <ele>175.097</ele>
        <time>2012-03-23T19:04:17.000Z</time>
      </trkpt>
      <trkpt lat="43.93324" lon="2.16739">
        <ele>175.097</ele>
        <time>2012-03-23T19:04:19.000Z</time>
      </trkpt>
      <trkpt lat="43.93336" lon="2.16744">
        <ele>175.097</ele>
        <time>2012-03-23T19:04:22.000Z</time>
      </trkpt>
      <trkpt lat="43.9334" lon="2.16756">
        <ele>176.059</ele>
        <time>2012-03-23T19:04:24.000Z</time>
      </trkpt>
      <trkpt lat="43.93342" lon="2.16769">
        <ele>176.059</ele>
        <time>2012-03-23T19:04:26.000Z</time>
      </trkpt>
      <trkpt lat="43.93346" lon="2.16785">
        <ele>176.059</ele>
        <time>2012-03-23T19:04:29.000Z</time>
      </trkpt>
      <trkpt lat="43.93349" lon="2.16797">
        <ele>176.539</ele>
        <time>2012-03-23T19:04:36.000Z</time>
      </trkpt>
      <trkpt lat="43.93352" lon="2.16811">
        <ele>177.02</ele>
        <time>2012-03-23T19:04:42.000Z</time>
      </trkpt>
      <trkpt lat="43.93356" lon="2.16825">
        <ele>177.501</ele>
        <time>2012-03-23T19:04:46.000Z</time>
      </trkpt>
      <trkpt lat="43.93359" lon="2.16838">
        <ele>177.501</ele>
        <time>2012-03-23T19:04:49.000Z</time>
      </trkpt>
      <trkpt lat="43.93362" lon="2.16852">
        <ele>177.501</ele>
        <time>2012-03-23T19:04:53.000Z</time>
      </trkpt>
      <trkpt lat="43.93367" lon="2.16863">
        <ele>177.02</ele>
        <time>2012-03-23T19:04:57.000Z</time>
      </trkpt>
      <trkpt lat="43.93375" lon="2.16869">
        <ele>176.539</ele>
        <time>2012-03-23T19:05:05.000Z</time>
      </trkpt>
      <trkpt lat="43.93387" lon="2.16866">
        <ele>176.059</ele>
        <time>2012-03-23T19:05:10.000Z</time>
      </trkpt>
      <trkpt lat="43.93397" lon="2.16861">
        <ele>175.578</ele>
        <time>2012-03-23T19:05:14.000Z</time>
      </trkpt>
      <trkpt lat="43.93407" lon="2.16858">
        <ele>175.578</ele>
        <time>2012-03-23T19:05:18.000Z</time>
      </trkpt>
      <trkpt lat="43.93417" lon="2.16854">
        <ele>175.097</ele>
        <time>2012-03-23T19:05:23.000Z</time>
      </trkpt>
      <trkpt lat="43.93427" lon="2.1685">
        <ele>174.617</ele>
        <time>2012-03-23T19:05:28.000Z</time>
      </trkpt>
      <trkpt lat="43.93437" lon="2.16845">
        <ele>173.655</ele>
        <time>2012-03-23T19:05:33.000Z</time>
      </trkpt>
      <trkpt lat="43.93447" lon="2.1684">
        <ele>174.136</ele>
        <time>2012-03-23T19:05:37.000Z</time>
      </trkpt>
      <trkpt lat="43.93457" lon="2.16835">
        <ele>174.617</ele>
        <time>2012-03-23T19:05:41.000Z</time>
      </trkpt>
      <trkpt lat="43.93466" lon="2.16829">
        <ele>174.617</ele>
        <time>2012-03-23T19:05:45.000Z</time>
      </trkpt>
      <trkpt lat="43.93475" lon="2.16825">
        <ele>174.617</ele>
        <time>2012-03-23T19:05:49.000Z</time>
      </trkpt>
      <trkpt lat="43.93483" lon="2.16822">
        <ele>174.617</ele>
        <time>2012-03-23T19:05:52.000Z</time>
      </trkpt>
      <trkpt lat="43.93497" lon="2.16816">
        <ele>174.617</ele>
        <time>2012-03-23T19:05:57.000Z</time>
      </trkpt>
      <trkpt lat="43.93508" lon="2.16811">
        <ele>175.097</ele>
        <time>2012-03-23T19:06:01.000Z</time>
      </trkpt>
      <trkpt lat="43.93516" lon="2.16806">
        <ele>175.097</ele>
        <time>2012-03-23T19:06:04.000Z</time>
      </trkpt>
      <trkpt lat="43.93527" lon="2.16802">
        <ele>175.097</ele>
        <time>2012-03-23T19:06:08.000Z</time>
      </trkpt>
      <trkpt lat="43.93536" lon="2.16799">
        <ele>174.617</ele>
        <time>2012-03-23T19:06:11.000Z</time>
      </trkpt>
      <trkpt lat="43.93545" lon="2.16794">
        <ele>174.617</ele>
        <time>2012-03-23T19:06:14.000Z</time>
      </trkpt>
      <trkpt lat="43.93557" lon="2.16789">
        <ele>174.136</ele>
        <time>2012-03-23T19:06:18.000Z</time>
      </trkpt>
      <trkpt lat="43.93565" lon="2.16786">
        <ele>174.136</ele>
        <time>2012-03-23T19:06:21.000Z</time>
      </trkpt>
      <trkpt lat="43.93574" lon="2.16782">
        <ele>174.617</ele>
        <time>2012-03-23T19:06:24.000Z</time>
      </trkpt>
      <trkpt lat="43.93583" lon="2.16778">
        <ele>175.097</ele>
        <time>2012-03-23T19:06:27.000Z</time>
      </trkpt>
      <trkpt lat="43.93596" lon="2.16772">
        <ele>175.578</ele>
        <time>2012-03-23T19:06:31.000Z</time>
      </trkpt>
      <trkpt lat="43.93607" lon="2.16766">
        <ele>175.097</ele>
        <time>2012-03-23T19:06:35.000Z</time>
      </trkpt>
      <trkpt lat="43.93615" lon="2.16762">
        <ele>175.578</ele>
        <time>2012-03-23T19:06:38.000Z</time>
      </trkpt>
      <trkpt lat="43.93626" lon="2.16755">
        <ele>175.097</ele>
        <time>2012-03-23T19:06:42.000Z</time>
      </trkpt>
      <trkpt lat="43.93636" lon="2.16749">
        <ele>176.059</ele>
        <time>2012-03-23T19:06:46.000Z</time>
      </trkpt>
      <trkpt lat="43.93646" lon="2.16742">
        <ele>176.059</ele>
        <time>2012-03-23T19:06:50.000Z</time>
      </trkpt>
      <trkpt lat="43.93655" lon="2.16738">
        <ele>176.059</ele>
        <time>2012-03-23T19:06:53.000Z</time>
      </trkpt>
      <trkpt lat="43.93664" lon="2.16734">
        <ele>176.539</ele>
        <time>2012-03-23T19:06:56.000Z</time>
      </trkpt>
      <trkpt lat="43.93675" lon="2.16727">
        <ele>176.059</ele>
        <time>2012-03-23T19:07:00.000Z</time>
      </trkpt>
      <trkpt lat="43.93683" lon="2.16722">
        <ele>176.539</ele>
        <time>2012-03-23T19:07:03.000Z</time>
      </trkpt>
      <trkpt lat="43.93692" lon="2.16717">
        <ele>176.539</ele>
        <time>2012-03-23T19:07:06.000Z</time>
      </trkpt>
      <trkpt lat="43.93702" lon="2.1671">
        <ele>177.02</ele>
        <time>2012-03-23T19:07:10.000Z</time>
      </trkpt>
      <trkpt lat="43.93713" lon="2.16706">
        <ele>176.539</ele>
        <time>2012-03-23T19:07:14.000Z</time>
      </trkpt>
      <trkpt lat="43.93724" lon="2.16705">
        <ele>176.059</ele>
        <time>2012-03-23T19:07:24.000Z</time>
      </trkpt>
      <trkpt lat="43.9373" lon="2.16696">
        <ele>176.539</ele>
        <time>2012-03-23T19:07:28.000Z</time>
      </trkpt>
      <trkpt lat="43.93737" lon="2.1669">
        <ele>176.059</ele>
        <time>2012-03-23T19:07:31.000Z</time>
      </trkpt>
      <trkpt lat="43.93749" lon="2.16683">
        <ele>175.578</ele>
        <time>2012-03-23T19:07:35.000Z</time>
      </trkpt>
      <trkpt lat="43.93758" lon="2.16679">
        <ele>175.097</ele>
        <time>2012-03-23T19:07:38.000Z</time>
      </trkpt>
      <trkpt lat="43.93766" lon="2.16674">
        <ele>175.097</ele>
        <time>2012-03-23T19:07:41.000Z</time>
      </trkpt>
      <trkpt lat="43.93775" lon="2.16669">
        <ele>175.097</ele>
        <time>2012-03-23T19:07:44.000Z</time>
      </trkpt>
      <trkpt lat="43.93784" lon="2.16663">
        <ele>174.617</ele>
        <time>2012-03-23T19:07:47.000Z</time>
      </trkpt>
      <trkpt lat="43.93794" lon="2.16657">
        <ele>174.136</ele>
        <time>2012-03-23T19:07:50.000Z</time>
      </trkpt>
      <trkpt lat="43.93803" lon="2.16651">
        <ele>174.136</ele>
        <time>2012-03-23T19:07:53.000Z</time>
      </trkpt>
      <trkpt lat="43.93811" lon="2.16646">
        <ele>174.136</ele>
        <time>2012-03-23T19:07:56.000Z</time>
      </trkpt>
      <trkpt lat="43.9382" lon="2.16641">
        <ele>173.655</ele>
        <time>2012-03-23T19:07:59.000Z</time>
      </trkpt>
      <trkpt lat="43.93831" lon="2.16635">
        <ele>173.175</ele>
        <time>2012-03-23T19:08:03.000Z</time>
      </trkpt>
      <trkpt lat="43.9384" lon="2.16636">
        <ele>173.175</ele>
        <time>2012-03-23T19:08:07.000Z</time>
      </trkpt>
      <trkpt lat="43.93851" lon="2.16641">
        <ele>172.694</ele>
        <time>2012-03-23T19:08:12.000Z</time>
      </trkpt>
      <trkpt lat="43.93861" lon="2.16646">
        <ele>173.175</ele>
        <time>2012-03-23T19:08:16.000Z</time>
      </trkpt>
      <trkpt lat="43.9387" lon="2.16652">
        <ele>173.175</ele>
        <time>2012-03-23T19:08:20.000Z</time>
      </trkpt>
      <trkpt lat="43.9388" lon="2.16657">
        <ele>173.175</ele>
        <time>2012-03-23T19:08:24.000Z</time>
      </trkpt>
      <trkpt lat="43.93889" lon="2.1666">
        <ele>173.655</ele>
        <time>2012-03-23T19:08:28.000Z</time>
      </trkpt>
      <trkpt lat="43.93899" lon="2.16664">
        <ele>174.136</ele>
        <time>2012-03-23T19:08:32.000Z</time>
      </trkpt>
      <trkpt lat="43.93907" lon="2.16668">
        <ele>173.655</ele>
        <time>2012-03-23T19:08:35.000Z</time>
      </trkpt>
      <trkpt lat="43.93919" lon="2.16673">
        <ele>173.655</ele>
        <time>2012-03-23T19:08:39.000Z</time>
      </trkpt>
      <trkpt lat="43.93928" lon="2.16677">
        <ele>173.655</ele>
        <time>2012-03-23T19:08:42.000Z</time>
      </trkpt>
      <trkpt lat="43.93939" lon="2.16683">
        <ele>174.136</ele>
        <time>2012-03-23T19:08:46.000Z</time>
      </trkpt>
      <trkpt lat="43.9395" lon="2.16687">
        <ele>173.655</ele>
        <time>2012-03-23T19:08:50.000Z</time>
      </trkpt>
      <trkpt lat="43.93958" lon="2.1669">
        <ele>173.655</ele>
        <time>2012-03-23T19:08:53.000Z</time>
      </trkpt>
      <trkpt lat="43.9397" lon="2.16694">
        <ele>173.175</ele>
        <time>2012-03-23T19:08:57.000Z</time>
      </trkpt>
      <trkpt lat="43.93978" lon="2.16698">
        <ele>173.175</ele>
        <time>2012-03-23T19:09:00.000Z</time>
      </trkpt>
      <trkpt lat="43.93987" lon="2.16701">
        <ele>173.175</ele>
        <time>2012-03-23T19:09:03.000Z</time>
      </trkpt>
      <trkpt lat="43.93996" lon="2.16705">
        <ele>173.175</ele>
        <time>2012-03-23T19:09:06.000Z</time>
      </trkpt>
      <trkpt lat="43.94005" lon="2.16708">
        <ele>173.175</ele>
        <time>2012-03-23T19:09:09.000Z</time>
      </trkpt>
      <trkpt lat="43.94014" lon="2.16711">
        <ele>173.175</ele>
        <time>2012-03-23T19:09:12.000Z</time>
      </trkpt>
      <trkpt lat="43.94023" lon="2.16715">
        <ele>173.175</ele>
        <time>2012-03-23T19:09:15.000Z</time>
      </trkpt>
      <trkpt lat="43.94033" lon="2.16719">
        <ele>172.694</ele>
        <time>2012-03-23T19:09:18.000Z</time>
      </trkpt>
      <trkpt lat="43.94043" lon="2.16723">
        <ele>172.694</ele>
        <time>2012-03-23T19:09:21.000Z</time>
      </trkpt>
      <trkpt lat="43.94053" lon="2.16726">
        <ele>172.213</ele>
        <time>2012-03-23T19:09:24.000Z</time>
      </trkpt>
      <trkpt lat="43.94062" lon="2.16729">
        <ele>172.213</ele>
        <time>2012-03-23T19:09:27.000Z</time>
      </trkpt>
      <trkpt lat="43.94071" lon="2.16734">
        <ele>172.213</ele>
        <time>2012-03-23T19:09:30.000Z</time>
      </trkpt>
      <trkpt lat="43.9408" lon="2.16737">
        <ele>172.213</ele>
        <time>2012-03-23T19:09:33.000Z</time>
      </trkpt>
      <trkpt lat="43.94089" lon="2.1674">
        <ele>171.733</ele>
        <time>2012-03-23T19:09:36.000Z</time>
      </trkpt>
      <trkpt lat="43.94098" lon="2.16744">
        <ele>171.733</ele>
        <time>2012-03-23T19:09:39.000Z</time>
      </trkpt>
      <trkpt lat="43.94109" lon="2.16743">
        <ele>171.733</ele>
        <time>2012-03-23T19:09:43.000Z</time>
      </trkpt>
      <trkpt lat="43.94117" lon="2.16732">
        <ele>171.733</ele>
        <time>2012-03-23T19:09:47.000Z</time>
      </trkpt>
      <trkpt lat="43.9412" lon="2.16719">
        <ele>171.733</ele>
        <time>2012-03-23T19:09:50.000Z</time>
      </trkpt>
      <trkpt lat="43.94124" lon="2.16704">
        <ele>172.213</ele>
        <time>2012-03-23T19:09:53.000Z</time>
      </trkpt>
      <trkpt lat="43.94128" lon="2.16688">
        <ele>171.733</ele>
        <time>2012-03-23T19:09:56.000Z</time>
      </trkpt>
      <trkpt lat="43.94135" lon="2.16682">
        <ele>170.771</ele>
        <time>2012-03-23T19:09:59.000Z</time>
      </trkpt>
      <trkpt lat="43.94144" lon="2.16685">
        <ele>170.771</ele>
        <time>2012-03-23T19:10:02.000Z</time>
      </trkpt>
      <trkpt lat="43.94154" lon="2.16688">
        <ele>170.291</ele>
        <time>2012-03-23T19:10:05.000Z</time>
      </trkpt>
      <trkpt lat="43.94163" lon="2.1669">
        <ele>170.291</ele>
        <time>2012-03-23T19:10:08.000Z</time>
      </trkpt>
      <trkpt lat="43.94173" lon="2.16692">
        <ele>170.771</ele>
        <time>2012-03-23T19:10:11.000Z</time>
      </trkpt>
      <trkpt lat="43.94183" lon="2.16695">
        <ele>170.771</ele>
        <time>2012-03-23T19:10:14.000Z</time>
      </trkpt>
      <trkpt lat="43.94196" lon="2.16699">
        <ele>169.81</ele>
        <time>2012-03-23T19:10:18.000Z</time>
      </trkpt>
      <trkpt lat="43.94207" lon="2.16701">
        <ele>169.329</ele>
        <time>2012-03-23T19:10:21.000Z</time>
      </trkpt>
      <trkpt lat="43.9422" lon="2.16696">
        <ele>168.368</ele>
        <time>2012-03-23T19:10:24.000Z</time>
      </trkpt>
      <trkpt lat="43.94228" lon="2.16692">
        <ele>167.887</ele>
        <time>2012-03-23T19:10:26.000Z</time>
      </trkpt>
      <trkpt lat="43.94238" lon="2.16688">
        <ele>167.407</ele>
        <time>2012-03-23T19:10:29.000Z</time>
      </trkpt>
      <trkpt lat="43.94246" lon="2.16679">
        <ele>167.407</ele>
        <time>2012-03-23T19:10:32.000Z</time>
      </trkpt>
      <trkpt lat="43.94251" lon="2.16664">
        <ele>167.887</ele>
        <time>2012-03-23T19:10:36.000Z</time>
      </trkpt>
      <trkpt lat="43.94255" lon="2.16651">
        <ele>167.887</ele>
        <time>2012-03-23T19:10:40.000Z</time>
      </trkpt>
      <trkpt lat="43.94258" lon="2.16641">
        <ele>167.887</ele>
        <time>2012-03-23T19:10:43.000Z</time>
      </trkpt>
      <trkpt lat="43.94263" lon="2.16628">
        <ele>167.887</ele>
        <time>2012-03-23T19:10:48.000Z</time>
      </trkpt>
      <trkpt lat="43.94266" lon="2.16616">
        <ele>167.407</ele>
        <time>2012-03-23T19:10:52.000Z</time>
      </trkpt>
      <trkpt lat="43.94269" lon="2.16605">
        <ele>167.407</ele>
        <time>2012-03-23T19:10:55.000Z</time>
      </trkpt>
      <trkpt lat="43.94273" lon="2.16592">
        <ele>167.407</ele>
        <time>2012-03-23T19:10:59.000Z</time>
      </trkpt>
      <trkpt lat="43.94278" lon="2.16579">
        <ele>167.407</ele>
        <time>2012-03-23T19:11:03.000Z</time>
      </trkpt>
      <trkpt lat="43.94282" lon="2.16565">
        <ele>167.887</ele>
        <time>2012-03-23T19:11:07.000Z</time>
      </trkpt>
      <trkpt lat="43.94287" lon="2.16552">
        <ele>167.407</ele>
        <time>2012-03-23T19:11:11.000Z</time>
      </trkpt>
      <trkpt lat="43.94291" lon="2.1654">
        <ele>166.926</ele>
        <time>2012-03-23T19:11:14.000Z</time>
      </trkpt>
      <trkpt lat="43.94295" lon="2.16527">
        <ele>166.926</ele>
        <time>2012-03-23T19:11:17.000Z</time>
      </trkpt>
      <trkpt lat="43.94299" lon="2.16516">
        <ele>166.445</ele>
        <time>2012-03-23T19:11:20.000Z</time>
      </trkpt>
      <trkpt lat="43.94304" lon="2.16501">
        <ele>166.445</ele>
        <time>2012-03-23T19:11:24.000Z</time>
      </trkpt>
      <trkpt lat="43.94309" lon="2.16485">
        <ele>165.965</ele>
        <time>2012-03-23T19:11:29.000Z</time>
      </trkpt>
      <trkpt lat="43.94313" lon="2.16471">
        <ele>165.484</ele>
        <time>2012-03-23T19:11:33.000Z</time>
      </trkpt>
      <trkpt lat="43.94318" lon="2.1646">
        <ele>165.484</ele>
        <time>2012-03-23T19:11:36.000Z</time>
      </trkpt>
      <trkpt lat="43.94322" lon="2.16447">
        <ele>166.445</ele>
        <time>2012-03-23T19:11:40.000Z</time>
      </trkpt>
      <trkpt lat="43.94325" lon="2.16434">
        <ele>166.926</ele>
        <time>2012-03-23T19:11:46.000Z</time>
      </trkpt>
      <trkpt lat="43.94325" lon="2.16422">
        <ele>168.849</ele>
        <time>2012-03-23T19:12:32.000Z</time>
      </trkpt>
      <trkpt lat="43.94335" lon="2.16424">
        <ele>170.291</ele>
        <time>2012-03-23T19:12:59.000Z</time>
      </trkpt>
      <trkpt lat="43.94342" lon="2.16424">
        <ele>169.81</ele>
        <time>2012-03-23T19:13:21.000Z</time>
      </trkpt>
      <trkpt lat="43.94347" lon="2.16411">
        <ele>169.329</ele>
        <time>2012-03-23T19:13:27.000Z</time>
      </trkpt>
      <trkpt lat="43.94351" lon="2.16399">
        <ele>168.849</ele>
        <time>2012-03-23T19:13:29.000Z</time>
      </trkpt>
      <trkpt lat="43.94356" lon="2.16385">
        <ele>168.849</ele>
        <time>2012-03-23T19:13:31.000Z</time>
      </trkpt>
      <trkpt lat="43.94361" lon="2.1637">
        <ele>168.368</ele>
        <time>2012-03-23T19:13:33.000Z</time>
      </trkpt>
      <trkpt lat="43.94365" lon="2.16356">
        <ele>168.368</ele>
        <time>2012-03-23T19:13:35.000Z</time>
      </trkpt>
      <trkpt lat="43.9437" lon="2.16341">
        <ele>167.887</ele>
        <time>2012-03-23T19:13:37.000Z</time>
      </trkpt>
      <trkpt lat="43.94375" lon="2.16327">
        <ele>167.887</ele>
        <time>2012-03-23T19:13:39.000Z</time>
      </trkpt>
      <trkpt lat="43.9438" lon="2.16313">
        <ele>167.407</ele>
        <time>2012-03-23T19:13:41.000Z</time>
      </trkpt>
      <trkpt lat="43.94382" lon="2.16306">
        <ele>167.407</ele>
        <time>2012-03-23T19:13:42.000Z</time>
      </trkpt>
      <trkpt lat="43.94388" lon="2.16287">
        <ele>167.407</ele>
        <time>2012-03-23T19:13:45.000Z</time>
      </trkpt>
      <trkpt lat="43.94392" lon="2.16275">
        <ele>167.407</ele>
        <time>2012-03-23T19:13:47.000Z</time>
      </trkpt>
      <trkpt lat="43.94397" lon="2.16263">
        <ele>167.407</ele>
        <time>2012-03-23T19:13:49.000Z</time>
      </trkpt>
      <trkpt lat="43.944" lon="2.16251">
        <ele>166.926</ele>
        <time>2012-03-23T19:13:51.000Z</time>
      </trkpt>
      <trkpt lat="43.94403" lon="2.16239">
        <ele>167.407</ele>
        <time>2012-03-23T19:13:53.000Z</time>
      </trkpt>
      <trkpt lat="43.94407" lon="2.16227">
        <ele>167.407</ele>
        <time>2012-03-23T19:13:55.000Z</time>
      </trkpt>
      <trkpt lat="43.9441" lon="2.16216">
        <ele>167.407</ele>
        <time>2012-03-23T19:13:57.000Z</time>
      </trkpt>
      <trkpt lat="43.94413" lon="2.16205">
        <ele>166.926</ele>
        <time>2012-03-23T19:14:00.000Z</time>
      </trkpt>
      <trkpt lat="43.94412" lon="2.16191">
        <ele>167.407</ele>
        <time>2012-03-23T19:14:05.000Z</time>
      </trkpt>
      <trkpt lat="43.94416" lon="2.16172">
        <ele>166.926</ele>
        <time>2012-03-23T19:14:08.000Z</time>
      </trkpt>
      <trkpt lat="43.9442" lon="2.16161">
        <ele>166.926</ele>
        <time>2012-03-23T19:14:10.000Z</time>
      </trkpt>
      <trkpt lat="43.94424" lon="2.16145">
        <ele>166.445</ele>
        <time>2012-03-23T19:14:13.000Z</time>
      </trkpt>
      <trkpt lat="43.94428" lon="2.16131">
        <ele>165.965</ele>
        <time>2012-03-23T19:14:15.000Z</time>
      </trkpt>
      <trkpt lat="43.94432" lon="2.16119">
        <ele>165.965</ele>
        <time>2012-03-23T19:14:17.000Z</time>
      </trkpt>
      <trkpt lat="43.94436" lon="2.16103">
        <ele>165.484</ele>
        <time>2012-03-23T19:14:20.000Z</time>
      </trkpt>
      <trkpt lat="43.9444" lon="2.16086">
        <ele>165.003</ele>
        <time>2012-03-23T19:14:23.000Z</time>
      </trkpt>
      <trkpt lat="43.94442" lon="2.1607">
        <ele>164.523</ele>
        <time>2012-03-23T19:14:26.000Z</time>
      </trkpt>
      <trkpt lat="43.94442" lon="2.16054">
        <ele>164.523</ele>
        <time>2012-03-23T19:14:29.000Z</time>
      </trkpt>
      <trkpt lat="43.94441" lon="2.16039">
        <ele>164.042</ele>
        <time>2012-03-23T19:14:32.000Z</time>
      </trkpt>
      <trkpt lat="43.94439" lon="2.16024">
        <ele>163.562</ele>
        <time>2012-03-23T19:14:35.000Z</time>
      </trkpt>
      <trkpt lat="43.94436" lon="2.16004">
        <ele>163.081</ele>
        <time>2012-03-23T19:14:38.000Z</time>
      </trkpt>
      <trkpt lat="43.94433" lon="2.15992">
        <ele>162.6</ele>
        <time>2012-03-23T19:14:40.000Z</time>
      </trkpt>
      <trkpt lat="43.94429" lon="2.15977">
        <ele>163.081</ele>
        <time>2012-03-23T19:14:43.000Z</time>
      </trkpt>
      <trkpt lat="43.94425" lon="2.15965">
        <ele>163.081</ele>
        <time>2012-03-23T19:14:47.000Z</time>
      </trkpt>
      <trkpt lat="43.94421" lon="2.15951">
        <ele>162.6</ele>
        <time>2012-03-23T19:14:52.000Z</time>
      </trkpt>
      <trkpt lat="43.94416" lon="2.15938">
        <ele>162.6</ele>
        <time>2012-03-23T19:14:57.000Z</time>
      </trkpt>
      <trkpt lat="43.94411" lon="2.15924">
        <ele>163.081</ele>
        <time>2012-03-23T19:15:02.000Z</time>
      </trkpt>
      <trkpt lat="43.94406" lon="2.15913">
        <ele>164.042</ele>
        <time>2012-03-23T19:15:11.000Z</time>
      </trkpt>
      <trkpt lat="43.944" lon="2.15902">
        <ele>164.523</ele>
        <time>2012-03-23T19:15:20.000Z</time>
      </trkpt>
      <trkpt lat="43.94402" lon="2.1589">
        <ele>165.484</ele>
        <time>2012-03-23T19:15:27.000Z</time>
      </trkpt>
      <trkpt lat="43.94409" lon="2.15881">
        <ele>164.523</ele>
        <time>2012-03-23T19:15:31.000Z</time>
      </trkpt>
      <trkpt lat="43.94405" lon="2.15864">
        <ele>165.003</ele>
        <time>2012-03-23T19:15:36.000Z</time>
      </trkpt>
      <trkpt lat="43.94401" lon="2.15849">
        <ele>165.003</ele>
        <time>2012-03-23T19:15:40.000Z</time>
      </trkpt>
      <trkpt lat="43.94398" lon="2.15834">
        <ele>165.003</ele>
        <time>2012-03-23T19:15:44.000Z</time>
      </trkpt>
      <trkpt lat="43.94396" lon="2.15819">
        <ele>164.523</ele>
        <time>2012-03-23T19:15:48.000Z</time>
      </trkpt>
      <trkpt lat="43.94394" lon="2.15806">
        <ele>164.523</ele>
        <time>2012-03-23T19:15:51.000Z</time>
      </trkpt>
      <trkpt lat="43.94394" lon="2.15793">
        <ele>164.042</ele>
        <time>2012-03-23T19:15:53.000Z</time>
      </trkpt>
      <trkpt lat="43.94394" lon="2.1578">
        <ele>163.562</ele>
        <time>2012-03-23T19:15:55.000Z</time>
      </trkpt>
      <trkpt lat="43.94396" lon="2.15761">
        <ele>163.081</ele>
        <time>2012-03-23T19:15:58.000Z</time>
      </trkpt>
      <trkpt lat="43.94397" lon="2.1575">
        <ele>163.081</ele>
        <time>2012-03-23T19:16:00.000Z</time>
      </trkpt>
      <trkpt lat="43.94398" lon="2.15727">
        <ele>162.6</ele>
        <time>2012-03-23T19:16:04.000Z</time>
      </trkpt>
      <trkpt lat="43.94397" lon="2.15717">
        <ele>162.6</ele>
        <time>2012-03-23T19:16:06.000Z</time>
      </trkpt>
      <trkpt lat="43.94397" lon="2.15697">
        <ele>163.081</ele>
        <time>2012-03-23T19:16:10.000Z</time>
      </trkpt>
      <trkpt lat="43.94395" lon="2.15682">
        <ele>163.081</ele>
        <time>2012-03-23T19:16:13.000Z</time>
      </trkpt>
      <trkpt lat="43.94392" lon="2.15668">
        <ele>162.6</ele>
        <time>2012-03-23T19:16:16.000Z</time>
      </trkpt>
      <trkpt lat="43.94387" lon="2.15654">
        <ele>162.12</ele>
        <time>2012-03-23T19:16:19.000Z</time>
      </trkpt>
      <trkpt lat="43.94382" lon="2.15641">
        <ele>161.158</ele>
        <time>2012-03-23T19:16:22.000Z</time>
      </trkpt>
      <trkpt lat="43.94376" lon="2.15629">
        <ele>160.677</ele>
        <time>2012-03-23T19:16:25.000Z</time>
      </trkpt>
      <trkpt lat="43.94369" lon="2.15617">
        <ele>160.197</ele>
        <time>2012-03-23T19:16:28.000Z</time>
      </trkpt>
      <trkpt lat="43.94362" lon="2.15603">
        <ele>159.716</ele>
        <time>2012-03-23T19:16:31.000Z</time>
      </trkpt>
      <trkpt lat="43.94355" lon="2.15588">
        <ele>159.235</ele>
        <time>2012-03-23T19:16:34.000Z</time>
      </trkpt>
      <trkpt lat="43.94347" lon="2.15574">
        <ele>159.235</ele>
        <time>2012-03-23T19:16:37.000Z</time>
      </trkpt>
      <trkpt lat="43.94339" lon="2.15558">
        <ele>159.716</ele>
        <time>2012-03-23T19:16:40.000Z</time>
      </trkpt>
      <trkpt lat="43.94335" lon="2.15544">
        <ele>159.716</ele>
        <time>2012-03-23T19:16:43.000Z</time>
      </trkpt>
      <trkpt lat="43.94335" lon="2.15529">
        <ele>160.197</ele>
        <time>2012-03-23T19:16:46.000Z</time>
      </trkpt>
      <trkpt lat="43.94341" lon="2.1552">
        <ele>160.197</ele>
        <time>2012-03-23T19:16:49.000Z</time>
      </trkpt>
      <trkpt lat="43.94351" lon="2.15512">
        <ele>159.716</ele>
        <time>2012-03-23T19:16:53.000Z</time>
      </trkpt>
      <trkpt lat="43.94361" lon="2.15503">
        <ele>160.197</ele>
        <time>2012-03-23T19:16:57.000Z</time>
      </trkpt>
      <trkpt lat="43.94368" lon="2.15493">
        <ele>161.639</ele>
        <time>2012-03-23T19:17:00.000Z</time>
      </trkpt>
      <trkpt lat="43.94375" lon="2.15482">
        <ele>163.081</ele>
        <time>2012-03-23T19:17:04.000Z</time>
      </trkpt>
      <trkpt lat="43.94381" lon="2.15472">
        <ele>164.523</ele>
        <time>2012-03-23T19:17:07.000Z</time>
      </trkpt>
      <trkpt lat="43.94386" lon="2.1546">
        <ele>166.445</ele>
        <time>2012-03-23T19:17:10.000Z</time>
      </trkpt>
      <trkpt lat="43.94394" lon="2.15446">
        <ele>166.445</ele>
        <time>2012-03-23T19:17:14.000Z</time>
      </trkpt>
      <trkpt lat="43.94397" lon="2.1543">
        <ele>167.887</ele>
        <time>2012-03-23T19:17:18.000Z</time>
      </trkpt>
      <trkpt lat="43.94392" lon="2.15417">
        <ele>168.849</ele>
        <time>2012-03-23T19:17:23.000Z</time>
      </trkpt>
      <trkpt lat="43.94391" lon="2.15405">
        <ele>169.329</ele>
        <time>2012-03-23T19:17:38.000Z</time>
      </trkpt>
      <trkpt lat="43.94392" lon="2.15391">
        <ele>170.771</ele>
        <time>2012-03-23T19:17:45.000Z</time>
      </trkpt>
      <trkpt lat="43.94395" lon="2.15377">
        <ele>171.252</ele>
        <time>2012-03-23T19:17:53.000Z</time>
      </trkpt>
      <trkpt lat="43.94399" lon="2.15369">
        <ele>170.771</ele>
        <time>2012-03-23T19:18:34.000Z</time>
      </trkpt>
      <trkpt lat="43.94402" lon="2.15357">
        <ele>170.771</ele>
        <time>2012-03-23T19:18:58.000Z</time>
      </trkpt>
      <trkpt lat="43.94403" lon="2.15343">
        <ele>170.291</ele>
        <time>2012-03-23T19:19:03.000Z</time>
      </trkpt>
      <trkpt lat="43.94405" lon="2.15327">
        <ele>170.291</ele>
        <time>2012-03-23T19:19:07.000Z</time>
      </trkpt>
      <trkpt lat="43.94407" lon="2.15314">
        <ele>169.81</ele>
        <time>2012-03-23T19:19:11.000Z</time>
      </trkpt>
      <trkpt lat="43.94408" lon="2.15299">
        <ele>169.81</ele>
        <time>2012-03-23T19:19:15.000Z</time>
      </trkpt>
      <trkpt lat="43.94411" lon="2.15279">
        <ele>169.329</ele>
        <time>2012-03-23T19:19:20.000Z</time>
      </trkpt>
      <trkpt lat="43.94413" lon="2.15264">
        <ele>169.329</ele>
        <time>2012-03-23T19:19:24.000Z</time>
      </trkpt>
      <trkpt lat="43.94415" lon="2.15247">
        <ele>168.849</ele>
        <time>2012-03-23T19:19:28.000Z</time>
      </trkpt>
      <trkpt lat="43.94416" lon="2.15236">
        <ele>168.849</ele>
        <time>2012-03-23T19:19:31.000Z</time>
      </trkpt>
      <trkpt lat="43.94416" lon="2.1522">
        <ele>168.368</ele>
        <time>2012-03-23T19:19:35.000Z</time>
      </trkpt>
      <trkpt lat="43.94418" lon="2.15207">
        <ele>168.368</ele>
        <time>2012-03-23T19:19:38.000Z</time>
      </trkpt>
      <trkpt lat="43.9442" lon="2.15193">
        <ele>167.887</ele>
        <time>2012-03-23T19:19:41.000Z</time>
      </trkpt>
      <trkpt lat="43.94423" lon="2.15179">
        <ele>167.407</ele>
        <time>2012-03-23T19:19:44.000Z</time>
      </trkpt>
      <trkpt lat="43.94424" lon="2.15165">
        <ele>167.407</ele>
        <time>2012-03-23T19:19:47.000Z</time>
      </trkpt>
      <trkpt lat="43.94425" lon="2.15151">
        <ele>166.926</ele>
        <time>2012-03-23T19:19:50.000Z</time>
      </trkpt>
      <trkpt lat="43.94427" lon="2.15138">
        <ele>166.445</ele>
        <time>2012-03-23T19:19:53.000Z</time>
      </trkpt>
      <trkpt lat="43.94428" lon="2.15125">
        <ele>166.445</ele>
        <time>2012-03-23T19:19:56.000Z</time>
      </trkpt>
      <trkpt lat="43.94429" lon="2.15111">
        <ele>165.965</ele>
        <time>2012-03-23T19:19:59.000Z</time>
      </trkpt>
      <trkpt lat="43.9443" lon="2.15096">
        <ele>165.484</ele>
        <time>2012-03-23T19:20:02.000Z</time>
      </trkpt>
      <trkpt lat="43.94432" lon="2.15083">
        <ele>165.003</ele>
        <time>2012-03-23T19:20:05.000Z</time>
      </trkpt>
      <trkpt lat="43.94433" lon="2.1507">
        <ele>164.523</ele>
        <time>2012-03-23T19:20:09.000Z</time>
      </trkpt>
      <trkpt lat="43.94442" lon="2.15068">
        <ele>163.562</ele>
        <time>2012-03-23T19:20:29.000Z</time>
      </trkpt>
      <trkpt lat="43.94452" lon="2.15074">
        <ele>163.081</ele>
        <time>2012-03-23T19:20:33.000Z</time>
      </trkpt>
      <trkpt lat="43.94461" lon="2.15078">
        <ele>162.6</ele>
        <time>2012-03-23T19:20:36.000Z</time>
      </trkpt>
      <trkpt lat="43.9447" lon="2.15082">
        <ele>163.081</ele>
        <time>2012-03-23T19:20:39.000Z</time>
      </trkpt>
      <trkpt lat="43.94482" lon="2.15087">
        <ele>162.6</ele>
        <time>2012-03-23T19:20:43.000Z</time>
      </trkpt>
      <trkpt lat="43.9449" lon="2.15092">
        <ele>163.081</ele>
        <time>2012-03-23T19:20:46.000Z</time>
      </trkpt>
      <trkpt lat="43.945" lon="2.15097">
        <ele>163.081</ele>
        <time>2012-03-23T19:20:49.000Z</time>
      </trkpt>
      <trkpt lat="43.9451" lon="2.15101">
        <ele>163.081</ele>
        <time>2012-03-23T19:20:52.000Z</time>
      </trkpt>
      <trkpt lat="43.94518" lon="2.15104">
        <ele>163.081</ele>
        <time>2012-03-23T19:20:55.000Z</time>
      </trkpt>
      <trkpt lat="43.94527" lon="2.15107">
        <ele>162.6</ele>
        <time>2012-03-23T19:20:58.000Z</time>
      </trkpt>
      <trkpt lat="43.94537" lon="2.15113">
        <ele>163.081</ele>
        <time>2012-03-23T19:21:02.000Z</time>
      </trkpt>
      <trkpt lat="43.94549" lon="2.15116">
        <ele>164.042</ele>
        <time>2012-03-23T19:21:06.000Z</time>
      </trkpt>
      <trkpt lat="43.94558" lon="2.15113">
        <ele>163.081</ele>
        <time>2012-03-23T19:21:10.000Z</time>
      </trkpt>
      <trkpt lat="43.94565" lon="2.15106">
        <ele>162.12</ele>
        <time>2012-03-23T19:21:14.000Z</time>
      </trkpt>
      <trkpt lat="43.94565" lon="2.15094">
        <ele>161.639</ele>
        <time>2012-03-23T19:21:45.000Z</time>
      </trkpt>
      <trkpt lat="43.94564" lon="2.15082">
        <ele>161.639</ele>
        <time>2012-03-23T19:21:50.000Z</time>
      </trkpt>
      <trkpt lat="43.94568" lon="2.15069">
        <ele>161.158</ele>
        <time>2012-03-23T19:21:54.000Z</time>
      </trkpt>
      <trkpt lat="43.94571" lon="2.15057">
        <ele>161.158</ele>
        <time>2012-03-23T19:21:57.000Z</time>
      </trkpt>
      <trkpt lat="43.94574" lon="2.15044">
        <ele>161.639</ele>
        <time>2012-03-23T19:22:00.000Z</time>
      </trkpt>
      <trkpt lat="43.94577" lon="2.15031">
        <ele>161.639</ele>
        <time>2012-03-23T19:22:03.000Z</time>
      </trkpt>
      <trkpt lat="43.94581" lon="2.15018">
        <ele>161.158</ele>
        <time>2012-03-23T19:22:06.000Z</time>
      </trkpt>
      <trkpt lat="43.94584" lon="2.15006">
        <ele>160.677</ele>
        <time>2012-03-23T19:22:09.000Z</time>
      </trkpt>
      <trkpt lat="43.94587" lon="2.14993">
        <ele>161.158</ele>
        <time>2012-03-23T19:22:12.000Z</time>
      </trkpt>
      <trkpt lat="43.9459" lon="2.14981">
        <ele>161.639</ele>
        <time>2012-03-23T19:22:15.000Z</time>
      </trkpt>
      <trkpt lat="43.94593" lon="2.14968">
        <ele>161.158</ele>
        <time>2012-03-23T19:22:18.000Z</time>
      </trkpt>
      <trkpt lat="43.94596" lon="2.14955">
        <ele>161.158</ele>
        <time>2012-03-23T19:22:21.000Z</time>
      </trkpt>
      <trkpt lat="43.946" lon="2.14942">
        <ele>161.158</ele>
        <time>2012-03-23T19:22:24.000Z</time>
      </trkpt>
      <trkpt lat="43.94604" lon="2.14929">
        <ele>160.677</ele>
        <time>2012-03-23T19:22:27.000Z</time>
      </trkpt>
      <trkpt lat="43.94607" lon="2.14916">
        <ele>160.197</ele>
        <time>2012-03-23T19:22:30.000Z</time>
      </trkpt>
      <trkpt lat="43.9461" lon="2.14902">
        <ele>160.677</ele>
        <time>2012-03-23T19:22:33.000Z</time>
      </trkpt>
      <trkpt lat="43.94614" lon="2.14889">
        <ele>160.677</ele>
        <time>2012-03-23T19:22:36.000Z</time>
      </trkpt>
      <trkpt lat="43.94618" lon="2.14876">
        <ele>160.197</ele>
        <time>2012-03-23T19:22:39.000Z</time>
      </trkpt>
      <trkpt lat="43.94623" lon="2.14865">
        <ele>160.197</ele>
        <time>2012-03-23T19:22:42.000Z</time>
      </trkpt>
      <trkpt lat="43.9463" lon="2.14852">
        <ele>160.197</ele>
        <time>2012-03-23T19:22:46.000Z</time>
      </trkpt>
      <trkpt lat="43.94634" lon="2.1484">
        <ele>160.197</ele>
        <time>2012-03-23T19:22:49.000Z</time>
      </trkpt>
      <trkpt lat="43.94642" lon="2.14832">
        <ele>159.716</ele>
        <time>2012-03-23T19:22:52.000Z</time>
      </trkpt>
      <trkpt lat="43.94654" lon="2.14827">
        <ele>159.716</ele>
        <time>2012-03-23T19:22:56.000Z</time>
      </trkpt>
      <trkpt lat="43.94663" lon="2.14822">
        <ele>159.716</ele>
        <time>2012-03-23T19:22:59.000Z</time>
      </trkpt>
      <trkpt lat="43.94672" lon="2.14818">
        <ele>160.197</ele>
        <time>2012-03-23T19:23:02.000Z</time>
      </trkpt>
      <trkpt lat="43.94682" lon="2.14812">
        <ele>159.716</ele>
        <time>2012-03-23T19:23:06.000Z</time>
      </trkpt>
      <trkpt lat="43.94692" lon="2.14806">
        <ele>160.197</ele>
        <time>2012-03-23T19:23:10.000Z</time>
      </trkpt>
      <trkpt lat="43.94703" lon="2.148">
        <ele>160.197</ele>
        <time>2012-03-23T19:23:14.000Z</time>
      </trkpt>
      <trkpt lat="43.94709" lon="2.14793">
        <ele>160.677</ele>
        <time>2012-03-23T19:23:18.000Z</time>
      </trkpt>
      <trkpt lat="43.94705" lon="2.14781">
        <ele>161.158</ele>
        <time>2012-03-23T19:23:24.000Z</time>
      </trkpt>
      <trkpt lat="43.94703" lon="2.14768">
        <ele>161.158</ele>
        <time>2012-03-23T19:23:29.000Z</time>
      </trkpt>
      <trkpt lat="43.94699" lon="2.14754">
        <ele>161.158</ele>
        <time>2012-03-23T19:23:34.000Z</time>
      </trkpt>
      <trkpt lat="43.94696" lon="2.14742">
        <ele>161.639</ele>
        <time>2012-03-23T19:23:38.000Z</time>
      </trkpt>
      <trkpt lat="43.94692" lon="2.14728">
        <ele>161.639</ele>
        <time>2012-03-23T19:23:42.000Z</time>
      </trkpt>
      <trkpt lat="43.94689" lon="2.14713">
        <ele>161.158</ele>
        <time>2012-03-23T19:23:46.000Z</time>
      </trkpt>
      <trkpt lat="43.94684" lon="2.14696">
        <ele>161.158</ele>
        <time>2012-03-23T19:23:51.000Z</time>
      </trkpt>
      <trkpt lat="43.94681" lon="2.14682">
        <ele>161.639</ele>
        <time>2012-03-23T19:23:55.000Z</time>
      </trkpt>
      <trkpt lat="43.94677" lon="2.1467">
        <ele>161.639</ele>
        <time>2012-03-23T19:23:59.000Z</time>
      </trkpt>
      <trkpt lat="43.94676" lon="2.1466">
        <ele>161.639</ele>
        <time>2012-03-23T19:24:04.000Z</time>
      </trkpt>
      <trkpt lat="43.94686" lon="2.14655">
        <ele>161.639</ele>
        <time>2012-03-23T19:24:09.000Z</time>
      </trkpt>
      <trkpt lat="43.94695" lon="2.14649">
        <ele>161.639</ele>
        <time>2012-03-23T19:24:13.000Z</time>
      </trkpt>
      <trkpt lat="43.94698" lon="2.14638">
        <ele>161.158</ele>
        <time>2012-03-23T19:24:16.000Z</time>
      </trkpt>
      <trkpt lat="43.94697" lon="2.14624">
        <ele>161.639</ele>
        <time>2012-03-23T19:24:20.000Z</time>
      </trkpt>
      <trkpt lat="43.94696" lon="2.14609">
        <ele>162.12</ele>
        <time>2012-03-23T19:24:24.000Z</time>
      </trkpt>
      <trkpt lat="43.94696" lon="2.14598">
        <ele>162.12</ele>
        <time>2012-03-23T19:24:27.000Z</time>
      </trkpt>
      <trkpt lat="43.94695" lon="2.14583">
        <ele>162.6</ele>
        <time>2012-03-23T19:24:31.000Z</time>
      </trkpt>
      <trkpt lat="43.94695" lon="2.14567">
        <ele>162.6</ele>
        <time>2012-03-23T19:24:35.000Z</time>
      </trkpt>
      <trkpt lat="43.94693" lon="2.14552">
        <ele>162.6</ele>
        <time>2012-03-23T19:24:39.000Z</time>
      </trkpt>
      <trkpt lat="43.94691" lon="2.14537">
        <ele>162.6</ele>
        <time>2012-03-23T19:24:44.000Z</time>
      </trkpt>
      <trkpt lat="43.9469" lon="2.14523">
        <ele>162.6</ele>
        <time>2012-03-23T19:24:49.000Z</time>
      </trkpt>
      <trkpt lat="43.94689" lon="2.1451">
        <ele>162.6</ele>
        <time>2012-03-23T19:24:53.000Z</time>
      </trkpt>
      <trkpt lat="43.94689" lon="2.14499">
        <ele>162.6</ele>
        <time>2012-03-23T19:24:56.000Z</time>
      </trkpt>
      <trkpt lat="43.94689" lon="2.14483">
        <ele>162.6</ele>
        <time>2012-03-23T19:25:01.000Z</time>
      </trkpt>
      <trkpt lat="43.94688" lon="2.1447">
        <ele>162.6</ele>
        <time>2012-03-23T19:25:05.000Z</time>
      </trkpt>
      <trkpt lat="43.94688" lon="2.14456">
        <ele>162.6</ele>
        <time>2012-03-23T19:25:10.000Z</time>
      </trkpt>
      <trkpt lat="43.94687" lon="2.14442">
        <ele>162.6</ele>
        <time>2012-03-23T19:25:14.000Z</time>
      </trkpt>
      <trkpt lat="43.94686" lon="2.14427">
        <ele>162.6</ele>
        <time>2012-03-23T19:25:18.000Z</time>
      </trkpt>
      <trkpt lat="43.94685" lon="2.14413">
        <ele>162.12</ele>
        <time>2012-03-23T19:25:22.000Z</time>
      </trkpt>
      <trkpt lat="43.94685" lon="2.14402">
        <ele>162.12</ele>
        <time>2012-03-23T19:25:25.000Z</time>
      </trkpt>
      <trkpt lat="43.94684" lon="2.14385">
        <ele>162.6</ele>
        <time>2012-03-23T19:25:30.000Z</time>
      </trkpt>
      <trkpt lat="43.94684" lon="2.14372">
        <ele>162.6</ele>
        <time>2012-03-23T19:25:34.000Z</time>
      </trkpt>
      <trkpt lat="43.94685" lon="2.14359">
        <ele>163.081</ele>
        <time>2012-03-23T19:25:38.000Z</time>
      </trkpt>
      <trkpt lat="43.94694" lon="2.14353">
        <ele>163.562</ele>
        <time>2012-03-23T19:25:43.000Z</time>
      </trkpt>
      <trkpt lat="43.94704" lon="2.14352">
        <ele>163.562</ele>
        <time>2012-03-23T19:25:47.000Z</time>
      </trkpt>
      <trkpt lat="43.94716" lon="2.1435">
        <ele>163.562</ele>
        <time>2012-03-23T19:25:51.000Z</time>
      </trkpt>
      <trkpt lat="43.94727" lon="2.14351">
        <ele>163.562</ele>
        <time>2012-03-23T19:25:55.000Z</time>
      </trkpt>
      <trkpt lat="43.94738" lon="2.14354">
        <ele>163.081</ele>
        <time>2012-03-23T19:25:59.000Z</time>
      </trkpt>
      <trkpt lat="43.94749" lon="2.14355">
        <ele>163.562</ele>
        <time>2012-03-23T19:26:03.000Z</time>
      </trkpt>
      <trkpt lat="43.94755" lon="2.14349">
        <ele>163.081</ele>
        <time>2012-03-23T19:26:08.000Z</time>
      </trkpt>
      <trkpt lat="43.94759" lon="2.14341">
        <ele>163.081</ele>
        <time>2012-03-23T19:26:14.000Z</time>
      </trkpt>
      <trkpt lat="43.94764" lon="2.14331">
        <ele>162.6</ele>
        <time>2012-03-23T19:26:21.000Z</time>
      </trkpt>
      <trkpt lat="43.94768" lon="2.1432">
        <ele>162.12</ele>
        <time>2012-03-23T19:26:27.000Z</time>
      </trkpt>
      <trkpt lat="43.94767" lon="2.14305">
        <ele>162.6</ele>
        <time>2012-03-23T19:26:35.000Z</time>
      </trkpt>
      <trkpt lat="43.94767" lon="2.1429">
        <ele>162.6</ele>
        <time>2012-03-23T19:26:42.000Z</time>
      </trkpt>
      <trkpt lat="43.94764" lon="2.14277">
        <ele>162.6</ele>
        <time>2012-03-23T19:26:51.000Z</time>
      </trkpt>
      <trkpt lat="43.94763" lon="2.14262">
        <ele>163.081</ele>
        <time>2012-03-23T19:26:56.000Z</time>
      </trkpt>
      <trkpt lat="43.94761" lon="2.14246">
        <ele>162.6</ele>
        <time>2012-03-23T19:27:01.000Z</time>
      </trkpt>
      <trkpt lat="43.94753" lon="2.14238">
        <ele>162.12</ele>
        <time>2012-03-23T19:27:06.000Z</time>
      </trkpt>
      <trkpt lat="43.94743" lon="2.14234">
        <ele>162.12</ele>
        <time>2012-03-23T19:27:10.000Z</time>
      </trkpt>
      <trkpt lat="43.94735" lon="2.14234">
        <ele>162.6</ele>
        <time>2012-03-23T19:27:13.000Z</time>
      </trkpt>
      <trkpt lat="43.94724" lon="2.14232">
        <ele>162.12</ele>
        <time>2012-03-23T19:27:17.000Z</time>
      </trkpt>
      <trkpt lat="43.94718" lon="2.14226">
        <ele>162.12</ele>
        <time>2012-03-23T19:27:23.000Z</time>
      </trkpt>
      <trkpt lat="43.94717" lon="2.14214">
        <ele>162.12</ele>
        <time>2012-03-23T19:27:30.000Z</time>
      </trkpt>
      <trkpt lat="43.94717" lon="2.142">
        <ele>163.081</ele>
        <time>2012-03-23T19:27:36.000Z</time>
      </trkpt>
      <trkpt lat="43.94716" lon="2.14186">
        <ele>162.6</ele>
        <time>2012-03-23T19:27:41.000Z</time>
      </trkpt>
      <trkpt lat="43.94716" lon="2.14173">
        <ele>162.6</ele>
        <time>2012-03-23T19:27:46.000Z</time>
      </trkpt>
      <trkpt lat="43.94716" lon="2.14163">
        <ele>163.081</ele>
        <time>2012-03-23T19:27:50.000Z</time>
      </trkpt>
      <trkpt lat="43.94716" lon="2.14145">
        <ele>162.12</ele>
        <time>2012-03-23T19:27:54.000Z</time>
      </trkpt>
      <trkpt lat="43.94716" lon="2.14131">
        <ele>162.12</ele>
        <time>2012-03-23T19:27:57.000Z</time>
      </trkpt>
      <trkpt lat="43.94714" lon="2.14117">
        <ele>162.12</ele>
        <time>2012-03-23T19:28:01.000Z</time>
      </trkpt>
      <trkpt lat="43.94714" lon="2.14103">
        <ele>162.6</ele>
        <time>2012-03-23T19:28:06.000Z</time>
      </trkpt>
      <trkpt lat="43.94713" lon="2.14089">
        <ele>162.12</ele>
        <time>2012-03-23T19:28:10.000Z</time>
      </trkpt>
      <trkpt lat="43.94712" lon="2.14078">
        <ele>162.12</ele>
        <time>2012-03-23T19:28:13.000Z</time>
      </trkpt>
      <trkpt lat="43.94711" lon="2.1406">
        <ele>162.6</ele>
        <time>2012-03-23T19:28:18.000Z</time>
      </trkpt>
      <trkpt lat="43.94709" lon="2.14045">
        <ele>163.562</ele>
        <time>2012-03-23T19:28:22.000Z</time>
      </trkpt>
      <trkpt lat="43.94709" lon="2.14035">
        <ele>164.042</ele>
        <time>2012-03-23T19:28:25.000Z</time>
      </trkpt>
      <trkpt lat="43.94707" lon="2.14017">
        <ele>162.6</ele>
        <time>2012-03-23T19:28:30.000Z</time>
      </trkpt>
      <trkpt lat="43.94707" lon="2.14004">
        <ele>162.12</ele>
        <time>2012-03-23T19:28:34.000Z</time>
      </trkpt>
      <trkpt lat="43.94701" lon="2.13995">
        <ele>161.158</ele>
        <time>2012-03-23T19:28:57.000Z</time>
      </trkpt>
      <trkpt lat="43.94691" lon="2.14001">
        <ele>162.12</ele>
        <time>2012-03-23T19:29:01.000Z</time>
      </trkpt>
      <trkpt lat="43.94682" lon="2.14007">
        <ele>161.639</ele>
        <time>2012-03-23T19:29:05.000Z</time>
      </trkpt>
      <trkpt lat="43.94671" lon="2.14012">
        <ele>162.12</ele>
        <time>2012-03-23T19:29:09.000Z</time>
      </trkpt>
      <trkpt lat="43.94659" lon="2.14016">
        <ele>162.6</ele>
        <time>2012-03-23T19:29:13.000Z</time>
      </trkpt>
      <trkpt lat="43.94651" lon="2.14019">
        <ele>162.6</ele>
        <time>2012-03-23T19:29:16.000Z</time>
      </trkpt>
      <trkpt lat="43.94642" lon="2.14024">
        <ele>162.6</ele>
        <time>2012-03-23T19:29:19.000Z</time>
      </trkpt>
      <trkpt lat="43.94633" lon="2.1403">
        <ele>162.12</ele>
        <time>2012-03-23T19:29:22.000Z</time>
      </trkpt>
      <trkpt lat="43.94624" lon="2.14036">
        <ele>161.639</ele>
        <time>2012-03-23T19:29:25.000Z</time>
      </trkpt>
      <trkpt lat="43.94614" lon="2.14043">
        <ele>162.12</ele>
        <time>2012-03-23T19:29:28.000Z</time>
      </trkpt>
      <trkpt lat="43.94604" lon="2.14048">
        <ele>162.12</ele>
        <time>2012-03-23T19:29:31.000Z</time>
      </trkpt>
      <trkpt lat="43.94594" lon="2.14054">
        <ele>162.12</ele>
        <time>2012-03-23T19:29:34.000Z</time>
      </trkpt>
      <trkpt lat="43.94584" lon="2.14061">
        <ele>162.12</ele>
        <time>2012-03-23T19:29:37.000Z</time>
      </trkpt>
      <trkpt lat="43.94573" lon="2.14067">
        <ele>161.639</ele>
        <time>2012-03-23T19:29:40.000Z</time>
      </trkpt>
      <trkpt lat="43.94562" lon="2.14072">
        <ele>161.639</ele>
        <time>2012-03-23T19:29:43.000Z</time>
      </trkpt>
      <trkpt lat="43.94552" lon="2.14077">
        <ele>161.158</ele>
        <time>2012-03-23T19:29:46.000Z</time>
      </trkpt>
      <trkpt lat="43.9454" lon="2.14082">
        <ele>162.12</ele>
        <time>2012-03-23T19:29:49.000Z</time>
      </trkpt>
      <trkpt lat="43.9453" lon="2.14088">
        <ele>162.12</ele>
        <time>2012-03-23T19:29:52.000Z</time>
      </trkpt>
      <trkpt lat="43.94519" lon="2.14093">
        <ele>161.639</ele>
        <time>2012-03-23T19:29:55.000Z</time>
      </trkpt>
      <trkpt lat="43.94509" lon="2.141">
        <ele>161.158</ele>
        <time>2012-03-23T19:29:58.000Z</time>
      </trkpt>
      <trkpt lat="43.94499" lon="2.14105">
        <ele>160.677</ele>
        <time>2012-03-23T19:30:01.000Z</time>
      </trkpt>
      <trkpt lat="43.94489" lon="2.14105">
        <ele>160.677</ele>
        <time>2012-03-23T19:30:04.000Z</time>
      </trkpt>
      <trkpt lat="43.94485" lon="2.14091">
        <ele>160.197</ele>
        <time>2012-03-23T19:30:07.000Z</time>
      </trkpt>
      <trkpt lat="43.94484" lon="2.14071">
        <ele>161.639</ele>
        <time>2012-03-23T19:30:11.000Z</time>
      </trkpt>
      <trkpt lat="43.94483" lon="2.14058">
        <ele>162.12</ele>
        <time>2012-03-23T19:30:14.000Z</time>
      </trkpt>
      <trkpt lat="43.94482" lon="2.14041">
        <ele>161.639</ele>
        <time>2012-03-23T19:30:18.000Z</time>
      </trkpt>
      <trkpt lat="43.94481" lon="2.14026">
        <ele>161.639</ele>
        <time>2012-03-23T19:30:22.000Z</time>
      </trkpt>
      <trkpt lat="43.9448" lon="2.14013">
        <ele>161.158</ele>
        <time>2012-03-23T19:30:25.000Z</time>
      </trkpt>
      <trkpt lat="43.94478" lon="2.13996">
        <ele>161.639</ele>
        <time>2012-03-23T19:30:29.000Z</time>
      </trkpt>
      <trkpt lat="43.94477" lon="2.1398">
        <ele>161.639</ele>
        <time>2012-03-23T19:30:33.000Z</time>
      </trkpt>
      <trkpt lat="43.94477" lon="2.13968">
        <ele>161.158</ele>
        <time>2012-03-23T19:30:37.000Z</time>
      </trkpt>
      <trkpt lat="43.94477" lon="2.13955">
        <ele>160.197</ele>
        <time>2012-03-23T19:30:41.000Z</time>
      </trkpt>
      <trkpt lat="43.94479" lon="2.13943">
        <ele>160.197</ele>
        <time>2012-03-23T19:30:45.000Z</time>
      </trkpt>
      <trkpt lat="43.9449" lon="2.13943">
        <ele>159.716</ele>
        <time>2012-03-23T19:30:50.000Z</time>
      </trkpt>
      <trkpt lat="43.94501" lon="2.13945">
        <ele>159.235</ele>
        <time>2012-03-23T19:30:53.000Z</time>
      </trkpt>
      <trkpt lat="43.94512" lon="2.13946">
        <ele>159.235</ele>
        <time>2012-03-23T19:30:56.000Z</time>
      </trkpt>
      <trkpt lat="43.94521" lon="2.13946">
        <ele>159.716</ele>
        <time>2012-03-23T19:30:59.000Z</time>
      </trkpt>
      <trkpt lat="43.94533" lon="2.13945">
        <ele>159.716</ele>
        <time>2012-03-23T19:31:03.000Z</time>
      </trkpt>
      <trkpt lat="43.94544" lon="2.13944">
        <ele>159.235</ele>
        <time>2012-03-23T19:31:07.000Z</time>
      </trkpt>
      <trkpt lat="43.94556" lon="2.13942">
        <ele>159.716</ele>
        <time>2012-03-23T19:31:11.000Z</time>
      </trkpt>
      <trkpt lat="43.94568" lon="2.13939">
        <ele>159.235</ele>
        <time>2012-03-23T19:31:16.000Z</time>
      </trkpt>
      <trkpt lat="43.94576" lon="2.1393">
        <ele>160.197</ele>
        <time>2012-03-23T19:31:20.000Z</time>
      </trkpt>
      <trkpt lat="43.94582" lon="2.1392">
        <ele>159.716</ele>
        <time>2012-03-23T19:31:24.000Z</time>
      </trkpt>
      <trkpt lat="43.94576" lon="2.13909">
        <ele>159.716</ele>
        <time>2012-03-23T19:31:29.000Z</time>
      </trkpt>
      <trkpt lat="43.94569" lon="2.13898">
        <ele>158.274</ele>
        <time>2012-03-23T19:31:34.000Z</time>
      </trkpt>
      <trkpt lat="43.94562" lon="2.13888">
        <ele>157.794</ele>
        <time>2012-03-23T19:31:39.000Z</time>
      </trkpt>
      <trkpt lat="43.94555" lon="2.13877">
        <ele>157.794</ele>
        <time>2012-03-23T19:31:45.000Z</time>
      </trkpt>
      <trkpt lat="43.94548" lon="2.13868">
        <ele>156.832</ele>
        <time>2012-03-23T19:31:49.000Z</time>
      </trkpt>
      <trkpt lat="43.94542" lon="2.13858">
        <ele>156.352</ele>
        <time>2012-03-23T19:31:53.000Z</time>
      </trkpt>
      <trkpt lat="43.94538" lon="2.13844">
        <ele>156.352</ele>
        <time>2012-03-23T19:31:58.000Z</time>
      </trkpt>
      <trkpt lat="43.94542" lon="2.13831">
        <ele>154.91</ele>
        <time>2012-03-23T19:32:04.000Z</time>
      </trkpt>
      <trkpt lat="43.94535" lon="2.1382">
        <ele>154.429</ele>
        <time>2012-03-23T19:32:10.000Z</time>
      </trkpt>
      <trkpt lat="43.94526" lon="2.13813">
        <ele>154.429</ele>
        <time>2012-03-23T19:32:15.000Z</time>
      </trkpt>
      <trkpt lat="43.94515" lon="2.13805">
        <ele>154.91</ele>
        <time>2012-03-23T19:32:20.000Z</time>
      </trkpt>
      <trkpt lat="43.94505" lon="2.13798">
        <ele>156.832</ele>
        <time>2012-03-23T19:32:24.000Z</time>
      </trkpt>
      <trkpt lat="43.9451" lon="2.13788">
        <ele>156.352</ele>
        <time>2012-03-23T19:32:35.000Z</time>
      </trkpt>
      <trkpt lat="43.94519" lon="2.13782">
        <ele>156.352</ele>
        <time>2012-03-23T19:32:39.000Z</time>
      </trkpt>
      <trkpt lat="43.94529" lon="2.13771">
        <ele>156.352</ele>
        <time>2012-03-23T19:32:43.000Z</time>
      </trkpt>
      <trkpt lat="43.94535" lon="2.13764">
        <ele>156.352</ele>
        <time>2012-03-23T19:32:46.000Z</time>
      </trkpt>
      <trkpt lat="43.94545" lon="2.13754">
        <ele>156.352</ele>
        <time>2012-03-23T19:32:50.000Z</time>
      </trkpt>
      <trkpt lat="43.94556" lon="2.13745">
        <ele>155.871</ele>
        <time>2012-03-23T19:32:54.000Z</time>
      </trkpt>
      <trkpt lat="43.94568" lon="2.13737">
        <ele>155.39</ele>
        <time>2012-03-23T19:32:57.000Z</time>
      </trkpt>
      <trkpt lat="43.94577" lon="2.13731">
        <ele>155.871</ele>
        <time>2012-03-23T19:33:00.000Z</time>
      </trkpt>
      <trkpt lat="43.94587" lon="2.13729">
        <ele>155.39</ele>
        <time>2012-03-23T19:33:50.000Z</time>
      </trkpt>
      <trkpt lat="43.94597" lon="2.13731">
        <ele>155.39</ele>
        <time>2012-03-23T19:33:53.000Z</time>
      </trkpt>
      <trkpt lat="43.94611" lon="2.13732">
        <ele>154.91</ele>
        <time>2012-03-23T19:33:56.000Z</time>
      </trkpt>
      <trkpt lat="43.94621" lon="2.13732">
        <ele>154.429</ele>
        <time>2012-03-23T19:33:58.000Z</time>
      </trkpt>
      <trkpt lat="43.94635" lon="2.13732">
        <ele>153.948</ele>
        <time>2012-03-23T19:34:01.000Z</time>
      </trkpt>
      <trkpt lat="43.94645" lon="2.13733">
        <ele>153.948</ele>
        <time>2012-03-23T19:34:04.000Z</time>
      </trkpt>
      <trkpt lat="43.94654" lon="2.13733">
        <ele>153.468</ele>
        <time>2012-03-23T19:34:32.000Z</time>
      </trkpt>
      <trkpt lat="43.94662" lon="2.13739">
        <ele>152.987</ele>
        <time>2012-03-23T19:34:58.000Z</time>
      </trkpt>
      <trkpt lat="43.94672" lon="2.13738">
        <ele>152.506</ele>
        <time>2012-03-23T19:35:02.000Z</time>
      </trkpt>
      <trkpt lat="43.94683" lon="2.13739">
        <ele>152.506</ele>
        <time>2012-03-23T19:35:06.000Z</time>
      </trkpt>
      <trkpt lat="43.94694" lon="2.13739">
        <ele>152.026</ele>
        <time>2012-03-23T19:35:10.000Z</time>
      </trkpt>
      <trkpt lat="43.94704" lon="2.13742">
        <ele>151.545</ele>
        <time>2012-03-23T19:35:14.000Z</time>
      </trkpt>
      <trkpt lat="43.94715" lon="2.13743">
        <ele>151.545</ele>
        <time>2012-03-23T19:35:18.000Z</time>
      </trkpt>
      <trkpt lat="43.94724" lon="2.13745">
        <ele>151.545</ele>
        <time>2012-03-23T19:35:22.000Z</time>
      </trkpt>
      <trkpt lat="43.94733" lon="2.13746">
        <ele>152.026</ele>
        <time>2012-03-23T19:35:26.000Z</time>
      </trkpt>
      <trkpt lat="43.94744" lon="2.13749">
        <ele>152.026</ele>
        <time>2012-03-23T19:35:30.000Z</time>
      </trkpt>
      <trkpt lat="43.94756" lon="2.13751">
        <ele>151.064</ele>
        <time>2012-03-23T19:35:34.000Z</time>
      </trkpt>
      <trkpt lat="43.94767" lon="2.13753">
        <ele>151.064</ele>
        <time>2012-03-23T19:35:38.000Z</time>
      </trkpt>
      <trkpt lat="43.94777" lon="2.13756">
        <ele>150.584</ele>
        <time>2012-03-23T19:35:42.000Z</time>
      </trkpt>
      <trkpt lat="43.94788" lon="2.13758">
        <ele>150.584</ele>
        <time>2012-03-23T19:35:46.000Z</time>
      </trkpt>
      <trkpt lat="43.94799" lon="2.13759">
        <ele>150.584</ele>
        <time>2012-03-23T19:35:50.000Z</time>
      </trkpt>
      <trkpt lat="43.94807" lon="2.13761">
        <ele>150.584</ele>
        <time>2012-03-23T19:35:53.000Z</time>
      </trkpt>
      <trkpt lat="43.94818" lon="2.13764">
        <ele>150.584</ele>
        <time>2012-03-23T19:35:57.000Z</time>
      </trkpt>
      <trkpt lat="43.9483" lon="2.13766">
        <ele>151.064</ele>
        <time>2012-03-23T19:36:01.000Z</time>
      </trkpt>
      <trkpt lat="43.94841" lon="2.13769">
        <ele>151.064</ele>
        <time>2012-03-23T19:36:05.000Z</time>
      </trkpt>
      <trkpt lat="43.94852" lon="2.13771">
        <ele>151.064</ele>
        <time>2012-03-23T19:36:09.000Z</time>
      </trkpt>
      <trkpt lat="43.94864" lon="2.13772">
        <ele>151.545</ele>
        <time>2012-03-23T19:36:13.000Z</time>
      </trkpt>
      <trkpt lat="43.94875" lon="2.13774">
        <ele>152.026</ele>
        <time>2012-03-23T19:36:17.000Z</time>
      </trkpt>
      <trkpt lat="43.94885" lon="2.13776">
        <ele>150.584</ele>
        <time>2012-03-23T19:36:20.000Z</time>
      </trkpt>
      <trkpt lat="43.94895" lon="2.13778">
        <ele>150.584</ele>
        <time>2012-03-23T19:36:23.000Z</time>
      </trkpt>
      <trkpt lat="43.94906" lon="2.13781">
        <ele>150.103</ele>
        <time>2012-03-23T19:36:27.000Z</time>
      </trkpt>
      <trkpt lat="43.9491" lon="2.13792">
        <ele>151.064</ele>
        <time>2012-03-23T19:36:32.000Z</time>
      </trkpt>
      <trkpt lat="43.94911" lon="2.13805">
        <ele>152.987</ele>
        <time>2012-03-23T19:36:38.000Z</time>
      </trkpt>
      <trkpt lat="43.94914" lon="2.13821">
        <ele>155.39</ele>
        <time>2012-03-23T19:36:45.000Z</time>
      </trkpt>
      <trkpt lat="43.94917" lon="2.13835">
        <ele>154.91</ele>
        <time>2012-03-23T19:36:50.000Z</time>
      </trkpt>
      <trkpt lat="43.94918" lon="2.13847">
        <ele>155.39</ele>
        <time>2012-03-23T19:36:55.000Z</time>
      </trkpt>
      <trkpt lat="43.94923" lon="2.1386">
        <ele>156.352</ele>
        <time>2012-03-23T19:37:01.000Z</time>
      </trkpt>
      <trkpt lat="43.94929" lon="2.13872">
        <ele>157.313</ele>
        <time>2012-03-23T19:37:05.000Z</time>
      </trkpt>
      <trkpt lat="43.94936" lon="2.13881">
        <ele>157.794</ele>
        <time>2012-03-23T19:37:09.000Z</time>
      </trkpt>
      <trkpt lat="43.94946" lon="2.13888">
        <ele>158.755</ele>
        <time>2012-03-23T19:37:15.000Z</time>
      </trkpt>
      <trkpt lat="43.94956" lon="2.13895">
        <ele>160.197</ele>
        <time>2012-03-23T19:37:21.000Z</time>
      </trkpt>
      <trkpt lat="43.94967" lon="2.13903">
        <ele>162.12</ele>
        <time>2012-03-23T19:37:27.000Z</time>
      </trkpt>
      <trkpt lat="43.94975" lon="2.13911">
        <ele>165.003</ele>
        <time>2012-03-23T19:37:34.000Z</time>
      </trkpt>
      <trkpt lat="43.94981" lon="2.13923">
        <ele>166.926</ele>
        <time>2012-03-23T19:37:41.000Z</time>
      </trkpt>
      <trkpt lat="43.94982" lon="2.13938">
        <ele>167.407</ele>
        <time>2012-03-23T19:37:49.000Z</time>
      </trkpt>
      <trkpt lat="43.94988" lon="2.13948">
        <ele>168.849</ele>
        <time>2012-03-23T19:38:27.000Z</time>
      </trkpt>
      <trkpt lat="43.94997" lon="2.13953">
        <ele>169.329</ele>
        <time>2012-03-23T19:38:30.000Z</time>
      </trkpt>
      <trkpt lat="43.95006" lon="2.13954">
        <ele>169.329</ele>
        <time>2012-03-23T19:38:33.000Z</time>
      </trkpt>
      <trkpt lat="43.95017" lon="2.13952">
        <ele>169.329</ele>
        <time>2012-03-23T19:38:37.000Z</time>
      </trkpt>
      <trkpt lat="43.95027" lon="2.13952">
        <ele>169.329</ele>
        <time>2012-03-23T19:38:41.000Z</time>
      </trkpt>
      <trkpt lat="43.95038" lon="2.13949">
        <ele>168.849</ele>
        <time>2012-03-23T19:38:46.000Z</time>
      </trkpt>
      <trkpt lat="43.95047" lon="2.13945">
        <ele>167.887</ele>
        <time>2012-03-23T19:38:51.000Z</time>
      </trkpt>
      <trkpt lat="43.9505" lon="2.13931">
        <ele>166.926</ele>
        <time>2012-03-23T19:38:57.000Z</time>
      </trkpt>
      <trkpt lat="43.9505" lon="2.13927">
        <ele>165.965</ele>
        <time>2012-03-23T20:47:02.000Z</time>
      </trkpt>
    </trkseg>
  </trk>
</gpx>